Observation data for Colorado City on 03/24/2019      Previous  Date  Next       Current Mesonet Observations  Soil Data  Daily Summary Page  Observations in Plain Language
KCO2 240500Z 15005KT 13/03 A3001 RMK A01 T01270026  RH  050%=      5-min Rain = 0
KCO2 240501Z 15005KT 13/03 A3001 RMK A01 T01270027  RH  050%=      5-min Rain = 0
KCO2 240502Z 15005KT 13/03 A3001 RMK A01 T01280027  RH  050%=      5-min Rain = 0
KCO2 240503Z 15005KT 13/03 A3001 RMK A01 T01280027  RH  050%=      5-min Rain = 0
KCO2 240504Z 15005KT 13/03 A3001 RMK A01 T01270027  RH  050%=      5-min Rain = 0
KCO2 240505Z 15005KT 13/03 A3001 RMK A01 T01270027  RH  050%=      5-min Rain = 0
KCO2 240506Z 15005KT 13/03 A3001 RMK A01 T01270027  RH  051%=      5-min Rain = 0
KCO2 240507Z 15005KT 13/03 A3001 RMK A01 T01260027  RH  051%=      5-min Rain = 0
KCO2 240508Z 15005KT 13/03 A3001 RMK A01 T01260027  RH  051%=      5-min Rain = 0
KCO2 240509Z 15005KT 13/03 A3001 RMK A01 T01250027  RH  051%=      5-min Rain = 0
KCO2 240510Z 15005KT 13/03 A3001 RMK A01 T01250028  RH  052%=      5-min Rain = 0
KCO2 240511Z 15005KT 12/03 A3001 RMK A01 T01240028  RH  052%=      5-min Rain = 0
KCO2 240512Z 15005KT 12/03 A3001 RMK A01 T01230028  RH  052%=      5-min Rain = 0
KCO2 240513Z 15005KT 12/03 A3001 RMK A01 T01230028  RH  052%=      5-min Rain = 0
KCO2 240514Z 15005KT 12/03 A3001 RMK A01 T01220028  RH  052%=      5-min Rain = 0
KCO2 240515Z 15005KT 12/03 A3001 RMK A01 T01220028  RH  053%=      5-min Rain = 0
KCO2 240516Z 15005KT 12/03 A3001 RMK A01 T01220029  RH  053%=      5-min Rain = 0
KCO2 240517Z 15005KT 12/03 A3001 RMK A01 T01220029  RH  053%=      5-min Rain = 0
KCO2 240518Z 15005KT 12/03 A3001 RMK A01 T01210028  RH  053%=      5-min Rain = 0
KCO2 240519Z 15005KT 12/03 A3001 RMK A01 T01220029  RH  053%=      5-min Rain = 0
KCO2 240520Z 15005KT 12/03 A3001 RMK A01 T01220028  RH  053%=      5-min Rain = 0
KCO2 240521Z 15006KT 12/03 A3001 RMK A01 T01210028  RH  053%=      5-min Rain = 0
KCO2 240522Z 15006KT 12/03 A3001 RMK A01 T01200028  RH  053%=      5-min Rain = 0
KCO2 240523Z 15007KT 12/03 A3001 RMK A01 T01190028  RH  053%=      5-min Rain = 0
KCO2 240524Z 15006KT 12/03 A3001 RMK A01 T01190027  RH  054%=      5-min Rain = 0
KCO2 240525Z 15006KT 12/03 A3001 RMK A01 T01180027  RH  054%=      5-min Rain = 0
KCO2 240526Z 15006KT 12/03 A3001 RMK A01 T01170026  RH  054%=      5-min Rain = 0
KCO2 240527Z 15006KT 12/03 A3001 RMK A01 T01170026  RH  054%=      5-min Rain = 0
KCO2 240528Z 15006KT 12/03 A3001 RMK A01 T01170026  RH  053%=      5-min Rain = 0
KCO2 240529Z 15006KT 12/03 A3001 RMK A01 T01170026  RH  053%=      5-min Rain = 0
KCO2 240530Z 14006KT 12/03 A3001 RMK A01 T01170026  RH  053%=      5-min Rain = 0
KCO2 240531Z 14006KT 12/03 A3001 RMK A01 T01170025  RH  053%=      5-min Rain = 0
KCO2 240532Z 14006KT 12/03 A3001 RMK A01 T01170025  RH  053%=      5-min Rain = 0
KCO2 240533Z 14006KT 12/03 A3001 RMK A01 T01170026  RH  054%=      5-min Rain = 0
KCO2 240534Z 14006KT 12/03 A3001 RMK A01 T01170027  RH  054%=      5-min Rain = 0
KCO2 240535Z 14006KT 12/03 A3001 RMK A01 T01170027  RH  054%=      5-min Rain = 0
KCO2 240536Z 14006KT 12/03 A3001 RMK A01 T01170027  RH  054%=      5-min Rain = 0
KCO2 240537Z 14007KT 12/03 A3001 RMK A01 T01160028  RH  055%=      5-min Rain = 0
KCO2 240538Z 13007KT 12/03 A3001 RMK A01 T01160028  RH  055%=      5-min Rain = 0
KCO2 240539Z 13007KT 12/03 A3001 RMK A01 T01160028  RH  055%=      5-min Rain = 0
KCO2 240540Z 13006KT 12/03 A3001 RMK A01 T01160028  RH  055%=      5-min Rain = 0
KCO2 240541Z 13006KT 12/03 A3001 RMK A01 T01160029  RH  055%=      5-min Rain = 0
KCO2 240542Z 13006KT 12/03 A3001 RMK A01 T01160029  RH  055%=      5-min Rain = 0
KCO2 240543Z 13006KT 12/03 A3001 RMK A01 T01160027  RH  055%=      5-min Rain = 0
KCO2 240544Z 13006KT 12/03 A3001 RMK A01 T01150025  RH  054%=      5-min Rain = 0
KCO2 240545Z 13006KT 12/02 A3001 RMK A01 T01150024  RH  053%=      5-min Rain = 0
KCO2 240546Z 13006KT 12/02 A3001 RMK A01 T01150023  RH  053%=      5-min Rain = 0
KCO2 240547Z 13006KT 12/02 A3001 RMK A01 T01150023  RH  053%=      5-min Rain = 0
KCO2 240548Z 14005KT 11/02 A3001 RMK A01 T01140022  RH  053%=      5-min Rain = 0
KCO2 240549Z 13005KT 11/02 A3001 RMK A01 T01130021  RH  053%=      5-min Rain = 0
KCO2 240550Z 13005KT 11/02 A3001 RMK A01 T01130020  RH  053%=      5-min Rain = 0
KCO2 240551Z 13005KT 11/02 A3001 RMK A01 T01130020  RH  053%=      5-min Rain = 0
KCO2 240552Z 13005KT 11/02 A3001 RMK A01 T01120019  RH  053%=      5-min Rain = 0
KCO2 240553Z 14005KT 11/02 A3001 RMK A01 T01120019  RH  053%=      5-min Rain = 0
KCO2 240554Z 14005KT 11/02 A3001 RMK A01 T01110018  RH  053%=      5-min Rain = 0
KCO2 240555Z 14005KT 11/02 A3001 RMK A01 T01110017  RH  052%=      5-min Rain = 0
KCO2 240556Z 14005KT 11/02 A3001 RMK A01 T01110017  RH  052%=      5-min Rain = 0
KCO2 240557Z 14005KT 11/02 A3001 RMK A01 T01120017  RH  052%=      5-min Rain = 0
KCO2 240558Z 14005KT 11/02 A3001 RMK A01 T01120017  RH  052%=      5-min Rain = 0
KCO2 240559Z 14006KT 11/02 A3001 RMK A01 T01130016  RH  051%=      5-min Rain = 0
KCO2 240600Z 14005KT 11/02 A3001 RMK A01 T01130015  RH  051%=      5-min Rain = 0
KCO2 240601Z 14006KT 11/02 A3001 RMK A01 T01120015  RH  051%=      5-min Rain = 0
KCO2 240602Z 14006KT 11/02 A3001 RMK A01 T01120015  RH  051%=      5-min Rain = 0
KCO2 240603Z 14006KT 11/02 A3001 RMK A01 T01120015  RH  051%=      5-min Rain = 0
KCO2 240604Z 15005KT 11/01 A3001 RMK A01 T01110014  RH  051%=      5-min Rain = 0
KCO2 240605Z 15005KT 11/02 A3001 RMK A01 T01110015  RH  051%=      5-min Rain = 0
KCO2 240606Z 14005KT 11/01 A3001 RMK A01 T01120014  RH  051%=      5-min Rain = 0
KCO2 240607Z 14005KT 11/02 A3001 RMK A01 T01120015  RH  051%=      5-min Rain = 0
KCO2 240608Z 14005KT 11/02 A3001 RMK A01 T01130015  RH  051%=      5-min Rain = 0
KCO2 240609Z 14006KT 11/01 A3001 RMK A01 T01130014  RH  050%=      5-min Rain = 0
KCO2 240610Z 14006KT 11/01 A3001 RMK A01 T01130014  RH  050%=      5-min Rain = 0
KCO2 240611Z 15006KT 11/01 A3001 RMK A01 T01130014  RH  051%=      5-min Rain = 0
KCO2 240612Z 15007KT 11/01 A3001 RMK A01 T01130014  RH  051%=      5-min Rain = 0
KCO2 240613Z 14007KT 11/01 A3001 RMK A01 T01120014  RH  051%=      5-min Rain = 0
KCO2 240614Z 15006KT 11/01 A3001 RMK A01 T01100014  RH  052%=      5-min Rain = 0
KCO2 240615Z 15006KT 11/01 A3001 RMK A01 T01090014  RH  052%=      5-min Rain = 0
KCO2 240616Z 15006KT 11/02 A3001 RMK A01 T01080015  RH  052%=      5-min Rain = 0
KCO2 240617Z 15005KT 11/02 A3001 RMK A01 T01080015  RH  052%=      5-min Rain = 0
KCO2 240618Z 15006KT 11/02 A3001 RMK A01 T01080015  RH  052%=      5-min Rain = 0
KCO2 240619Z 16006KT 11/02 A3001 RMK A01 T01080015  RH  052%=      5-min Rain = 0
KCO2 240620Z 16006KT 11/02 A3001 RMK A01 T01080015  RH  053%=      5-min Rain = 0
KCO2 240621Z 16005KT 11/02 A3001 RMK A01 T01080016  RH  053%=      5-min Rain = 0
KCO2 240622Z 16006KT 11/02 A3001 RMK A01 T01080016  RH  053%=      5-min Rain = 0
KCO2 240623Z 16006KT 11/02 A3001 RMK A01 T01080017  RH  053%=      5-min Rain = 0
KCO2 240624Z 16007KT 11/02 A3001 RMK A01 T01080018  RH  054%=      5-min Rain = 0
KCO2 240625Z 16008KT 11/02 A3002 RMK A01 T01060017  RH  054%=      5-min Rain = 0
KCO2 240626Z 16009KT 10/02 A3002 RMK A01 T01040018  RH  055%=      5-min Rain = 0
KCO2 240627Z 16008KT 10/02 A3002 RMK A01 T01020021  RH  057%=      5-min Rain = 0
KCO2 240628Z 15007KT 10/02 A3002 RMK A01 T01020023  RH  058%=      5-min Rain = 0
KCO2 240629Z 16007KT 10/02 A3002 RMK A01 T01020024  RH  058%=      5-min Rain = 0
KCO2 240630Z 16007KT 10/03 A3002 RMK A01 T01030025  RH  058%=      5-min Rain = 0
KCO2 240631Z 17007KT 10/03 A3002 RMK A01 T01030026  RH  059%=      5-min Rain = 0
KCO2 240632Z 18007KT 10/03 A3002 RMK A01 T01030026  RH  058%=      5-min Rain = 0
KCO2 240633Z 18007KT 10/03 A3002 RMK A01 T01040025  RH  058%=      5-min Rain = 0
KCO2 240634Z 18006KT 10/02 A3002 RMK A01 T01040024  RH  058%=      5-min Rain = 0
KCO2 240635Z 18006KT 10/02 A3001 RMK A01 T01030024  RH  058%=      5-min Rain = 0
KCO2 240636Z 18005KT 10/02 A3001 RMK A01 T01030023  RH  058%=      5-min Rain = 0
KCO2 240637Z 17005KT 10/02 A3001 RMK A01 T01030023  RH  057%=      5-min Rain = 0
KCO2 240638Z 17005KT 10/02 A3001 RMK A01 T01030022  RH  057%=      5-min Rain = 0
KCO2 240639Z 17006KT 10/02 A3001 RMK A01 T01030022  RH  057%=      5-min Rain = 0
KCO2 240640Z 17005KT 10/02 A3001 RMK A01 T01030021  RH  057%=      5-min Rain = 0
KCO2 240641Z 16005KT 10/02 A3001 RMK A01 T01030021  RH  057%=      5-min Rain = 0
KCO2 240642Z 16006KT 10/02 A3001 RMK A01 T01030021  RH  057%=      5-min Rain = 0
KCO2 240643Z 15007KT 10/02 A3001 RMK A01 T01020020  RH  057%=      5-min Rain = 0
KCO2 240644Z 16009KT 10/02 A3002 RMK A01 T01010020  RH  057%=      5-min Rain = 0
KCO2 240645Z 15010KT 10/02 A3002 RMK A01 T01000020  RH  057%=      5-min Rain = 0
KCO2 240646Z 16010KT 10/02 A3002 RMK A01 T01000021  RH  058%=      5-min Rain = 0
KCO2 240647Z 16007KT 10/02 A3001 RMK A01 T01030023  RH  057%=      5-min Rain = 0
KCO2 240648Z 16006KT 11/02 A3001 RMK A01 T01060023  RH  057%=      5-min Rain = 0
KCO2 240649Z 15006KT 11/02 A3001 RMK A01 T01080023  RH  056%=      5-min Rain = 0
KCO2 240650Z 16006KT 11/02 A3001 RMK A01 T01080023  RH  056%=      5-min Rain = 0
KCO2 240651Z 16005KT 11/02 A3001 RMK A01 T01080023  RH  056%=      5-min Rain = 0
KCO2 240652Z 15005KT 11/02 A3001 RMK A01 T01080023  RH  056%=      5-min Rain = 0
KCO2 240653Z 14007KT 11/02 A3001 RMK A01 T01080023  RH  056%=      5-min Rain = 0
KCO2 240654Z 15009KT 11/02 A3002 RMK A01 T01070023  RH  056%=      5-min Rain = 0
KCO2 240655Z 17007KT 11/02 A3002 RMK A01 T01060023  RH  056%=      5-min Rain = 0
KCO2 240656Z 17005KT 11/02 A3002 RMK A01 T01080024  RH  056%=      5-min Rain = 0
KCO2 240657Z 17006KT 11/02 A3001 RMK A01 T01090024  RH  056%=      5-min Rain = 0
KCO2 240658Z 15006KT 11/02 A3001 RMK A01 T01100024  RH  055%=      5-min Rain = 0
KCO2 240659Z 15006KT 11/02 A3001 RMK A01 T01100023  RH  055%=      5-min Rain = 0
KCO2 240700Z 14006KT 11/02 A3001 RMK A01 T01100023  RH  055%=      5-min Rain = 0
KCO2 240701Z 16006KT 11/02 A3001 RMK A01 T01090023  RH  055%=      5-min Rain = 0
KCO2 240702Z 16006KT 11/02 A3001 RMK A01 T01080023  RH  056%=      5-min Rain = 0
KCO2 240703Z 16006KT 11/02 A3001 RMK A01 T01070024  RH  056%=      5-min Rain = 0
KCO2 240704Z 16006KT 11/02 A3001 RMK A01 T01060023  RH  056%=      5-min Rain = 0
KCO2 240705Z 16006KT 11/02 A3001 RMK A01 T01070023  RH  056%=      5-min Rain = 0
KCO2 240706Z 16006KT 11/02 A3001 RMK A01 T01070023  RH  056%=      5-min Rain = 0
KCO2 240707Z 16006KT 11/02 A3001 RMK A01 T01070024  RH  056%=      5-min Rain = 0
KCO2 240708Z 16005KT 11/02 A3001 RMK A01 T01070024  RH  057%=      5-min Rain = 0
KCO2 240709Z 16006KT 11/03 A3001 RMK A01 T01070025  RH  057%=      5-min Rain = 0
KCO2 240710Z 17006KT 11/03 A3001 RMK A01 T01060025  RH  057%=      5-min Rain = 0
KCO2 240711Z 16005KT 11/02 A3001 RMK A01 T01050024  RH  057%=      5-min Rain = 0
KCO2 240712Z 16006KT 10/02 A3001 RMK A01 T01040024  RH  057%=      5-min Rain = 0
KCO2 240713Z 17006KT 11/02 A3001 RMK A01 T01050022  RH  057%=      5-min Rain = 0
KCO2 240714Z 17006KT 11/02 A3001 RMK A01 T01060022  RH  056%=      5-min Rain = 0
KCO2 240715Z 17006KT 11/02 A3001 RMK A01 T01070023  RH  056%=      5-min Rain = 0
KCO2 240716Z 17007KT 11/02 A3001 RMK A01 T01080022  RH  055%=      5-min Rain = 0
KCO2 240717Z 17006KT 11/02 A3001 RMK A01 T01080022  RH  055%=      5-min Rain = 0
KCO2 240718Z 17005KT 11/02 A3001 RMK A01 T01080022  RH  055%=      5-min Rain = 0
KCO2 240719Z 17005KT 11/02 A3001 RMK A01 T01080022  RH  055%=      5-min Rain = 0
KCO2 240720Z 16006KT 11/02 A3001 RMK A01 T01080022  RH  055%=      5-min Rain = 0
KCO2 240721Z 16006KT 11/02 A3001 RMK A01 T01070021  RH  055%=      5-min Rain = 0
KCO2 240722Z 16007KT 11/02 A3001 RMK A01 T01080021  RH  055%=      5-min Rain = 0
KCO2 240723Z 16007KT 11/02 A3001 RMK A01 T01080020  RH  055%=      5-min Rain = 0
KCO2 240724Z 17005KT 11/02 A3001 RMK A01 T01090019  RH  054%=      5-min Rain = 0
KCO2 240725Z 17005KT 11/02 A3001 RMK A01 T01100019  RH  053%=      5-min Rain = 0
KCO2 240726Z 17005KT 11/02 A3001 RMK A01 T01100018  RH  053%=      5-min Rain = 0
KCO2 240727Z 16005KT 11/02 A3001 RMK A01 T01110017  RH  053%=      5-min Rain = 0
KCO2 240728Z 15005KT 11/02 A3001 RMK A01 T01110017  RH  053%=      5-min Rain = 0
KCO2 240729Z 15004KT 11/02 A3001 RMK A01 T01110018  RH  053%=      5-min Rain = 0
KCO2 240730Z 16004KT 11/02 A3001 RMK A01 T01100018  RH  053%=      5-min Rain = 0
KCO2 240731Z 15004KT 11/02 A3001 RMK A01 T01100018  RH  053%=      5-min Rain = 0
KCO2 240732Z 15005KT 11/02 A3001 RMK A01 T01090019  RH  054%=      5-min Rain = 0
KCO2 240733Z 14005KT 11/02 A3001 RMK A01 T01070020  RH  055%=      5-min Rain = 0
KCO2 240734Z 14005KT 11/02 A3001 RMK A01 T01050020  RH  056%=      5-min Rain = 0
KCO2 240735Z 14005KT 10/02 A3001 RMK A01 T01030020  RH  056%=      5-min Rain = 0
KCO2 240736Z 14006KT 10/02 A3001 RMK A01 T01010020  RH  057%=      5-min Rain = 0
KCO2 240737Z 15006KT 10/02 A3001 RMK A01 T01000020  RH  057%=      5-min Rain = 0
KCO2 240738Z 15006KT 10/02 A3001 RMK A01 T00990020  RH  058%=      5-min Rain = 0
KCO2 240739Z 15006KT 10/02 A3001 RMK A01 T00990020  RH  058%=      5-min Rain = 0
KCO2 240740Z 15006KT 10/02 A3001 RMK A01 T00990019  RH  057%=      5-min Rain = 0
KCO2 240741Z 15006KT 10/02 A3001 RMK A01 T01000019  RH  057%=      5-min Rain = 0
KCO2 240742Z 15006KT 10/02 A3001 RMK A01 T01010019  RH  057%=      5-min Rain = 0
KCO2 240743Z 15005KT 10/02 A3001 RMK A01 T01020020  RH  057%=      5-min Rain = 0
KCO2 240744Z 15006KT 10/02 A3001 RMK A01 T01020021  RH  057%=      5-min Rain = 0
KCO2 240745Z 15006KT 10/02 A3001 RMK A01 T01030021  RH  056%=      5-min Rain = 0
KCO2 240746Z 15006KT 11/02 A3001 RMK A01 T01050021  RH  056%=      5-min Rain = 0
KCO2 240747Z 15006KT 11/02 A3001 RMK A01 T01060021  RH  056%=      5-min Rain = 0
KCO2 240748Z 15006KT 11/02 A3001 RMK A01 T01060021  RH  056%=      5-min Rain = 0
KCO2 240749Z 15006KT 11/02 A3001 RMK A01 T01070021  RH  055%=      5-min Rain = 0
KCO2 240750Z 15006KT 11/02 A3001 RMK A01 T01080021  RH  055%=      5-min Rain = 0
KCO2 240751Z 16006KT 11/02 A3001 RMK A01 T01100022  RH  055%=      5-min Rain = 0
KCO2 240752Z 16006KT 11/02 A3001 RMK A01 T01100022  RH  054%=      5-min Rain = 0
KCO2 240753Z 16006KT 11/02 A3001 RMK A01 T01110022  RH  054%=      5-min Rain = 0
KCO2 240754Z 15006KT 11/02 A3001 RMK A01 T01110022  RH  054%=      5-min Rain = 0
KCO2 240755Z 16005KT 11/02 A3001 RMK A01 T01120022  RH  054%=      5-min Rain = 0
KCO2 240756Z 16005KT 11/02 A3001 RMK A01 T01120022  RH  054%=      5-min Rain = 0
KCO2 240757Z 16006KT 11/02 A3001 RMK A01 T01120022  RH  054%=      5-min Rain = 0
KCO2 240758Z 16006KT 11/02 A3001 RMK A01 T01120022  RH  054%=      5-min Rain = 0
KCO2 240759Z 16006KT 11/02 A3001 RMK A01 T01120022  RH  054%=      5-min Rain = 0
KCO2 240800Z 16006KT 11/02 A3001 RMK A01 T01120022  RH  054%=      5-min Rain = 0
KCO2 240801Z 15006KT 11/02 A3001 RMK A01 T01120022  RH  054%=      5-min Rain = 0
KCO2 240802Z 15006KT 11/02 A3001 RMK A01 T01130023  RH  054%=      5-min Rain = 0
KCO2 240803Z 15006KT 11/02 A3001 RMK A01 T01130023  RH  054%=      5-min Rain = 0
KCO2 240804Z 15007KT 11/02 A3001 RMK A01 T01130023  RH  054%=      5-min Rain = 0
KCO2 240805Z 15007KT 11/02 A3001 RMK A01 T01130024  RH  054%=      5-min Rain = 0
KCO2 240806Z 15007KT 11/03 A3001 RMK A01 T01130025  RH  054%=      5-min Rain = 0
KCO2 240807Z 15007KT 11/03 A3001 RMK A01 T01130025  RH  054%=      5-min Rain = 0
KCO2 240808Z 15007KT 11/03 A3001 RMK A01 T01140025  RH  055%=      5-min Rain = 0
KCO2 240809Z 15007KT 11/03 A3001 RMK A01 T01130026  RH  055%=      5-min Rain = 0
KCO2 240810Z 15007KT 11/03 A3001 RMK A01 T01130026  RH  055%=      5-min Rain = 0
KCO2 240811Z 14007KT 11/03 A3001 RMK A01 T01130027  RH  055%=      5-min Rain = 0
KCO2 240812Z 14007KT 11/03 A3001 RMK A01 T01120027  RH  056%=      5-min Rain = 0
KCO2 240813Z 14007KT 11/03 A3001 RMK A01 T01110027  RH  056%=      5-min Rain = 0
KCO2 240814Z 14007KT 11/03 A3001 RMK A01 T01110027  RH  056%=      5-min Rain = 0
KCO2 240815Z 15007KT 11/03 A3001 RMK A01 T01110027  RH  056%=      5-min Rain = 0
KCO2 240816Z 15007KT 11/03 A3001 RMK A01 T01120028  RH  056%=      5-min Rain = 0
KCO2 240817Z 15007KT 11/03 A3001 RMK A01 T01120028  RH  056%=      5-min Rain = 0
KCO2 240818Z 15008KT 11/03 A3001 RMK A01 T01120029  RH  057%=      5-min Rain = 0
KCO2 240819Z 15007KT 11/03 A3001 RMK A01 T01120029  RH  057%=      5-min Rain = 0
KCO2 240820Z 15007KT 11/03 A3001 RMK A01 T01130030  RH  057%=      5-min Rain = 0
KCO2 240821Z 15007KT 11/03 A3001 RMK A01 T01140031  RH  057%=      5-min Rain = 0
KCO2 240822Z 15007KT 11/03 A3001 RMK A01 T01130031  RH  057%=      5-min Rain = 0
KCO2 240823Z 15007KT 11/03 A3001 RMK A01 T01130031  RH  057%=      5-min Rain = 0
KCO2 240824Z 15007KT 11/03 A3001 RMK A01 T01140032  RH  057%=      5-min Rain = 0
KCO2 240825Z 15007KT 11/03 A3001 RMK A01 T01140032  RH  057%=      5-min Rain = 0
KCO2 240826Z 15007KT 11/03 A3001 RMK A01 T01140033  RH  057%=      5-min Rain = 0
KCO2 240827Z 15006KT 12/03 A3001 RMK A01 T01150033  RH  057%=      5-min Rain = 0
KCO2 240828Z 15006KT 12/03 A3001 RMK A01 T01150034  RH  058%=      5-min Rain = 0
KCO2 240829Z 15006KT 11/03 A3001 RMK A01 T01140033  RH  058%=      5-min Rain = 0
KCO2 240830Z 16006KT 11/03 A3001 RMK A01 T01130033  RH  058%=      5-min Rain = 0
KCO2 240831Z 16006KT 11/03 A3001 RMK A01 T01130034  RH  058%=      5-min Rain = 0
KCO2 240832Z 16006KT 11/04 A3001 RMK A01 T01130035  RH  059%=      5-min Rain = 0
KCO2 240833Z 16006KT 11/04 A3001 RMK A01 T01130035  RH  059%=      5-min Rain = 0
KCO2 240834Z 16006KT 11/04 A3001 RMK A01 T01120036  RH  059%=      5-min Rain = 0
KCO2 240835Z 16006KT 11/04 A3001 RMK A01 T01130037  RH  059%=      5-min Rain = 0
KCO2 240836Z 16006KT 11/04 A3001 RMK A01 T01120037  RH  060%=      5-min Rain = 0
KCO2 240837Z 16006KT 11/04 A3001 RMK A01 T01120037  RH  060%=      5-min Rain = 0
KCO2 240838Z 16006KT 11/04 A3001 RMK A01 T01120038  RH  060%=      5-min Rain = 0
KCO2 240839Z 16006KT 11/04 A3001 RMK A01 T01120038  RH  060%=      5-min Rain = 0
KCO2 240840Z 16006KT 11/04 A3001 RMK A01 T01110038  RH  061%=      5-min Rain = 0
KCO2 240841Z 16006KT 11/04 A3001 RMK A01 T01100038  RH  061%=      5-min Rain = 0
KCO2 240842Z 16006KT 11/04 A3001 RMK A01 T01100039  RH  062%=      5-min Rain = 0
KCO2 240843Z 16006KT 11/04 A3001 RMK A01 T01090039  RH  062%=      5-min Rain = 0
KCO2 240844Z 16007KT 11/04 A3001 RMK A01 T01090040  RH  062%=      5-min Rain = 0
KCO2 240845Z 16006KT 11/04 A3001 RMK A01 T01090040  RH  062%=      5-min Rain = 0
KCO2 240846Z 17006KT 11/04 A3001 RMK A01 T01090040  RH  063%=      5-min Rain = 0
KCO2 240847Z 17006KT 11/04 A3001 RMK A01 T01080040  RH  063%=      5-min Rain = 0
KCO2 240848Z 16006KT 11/04 A3001 RMK A01 T01080041  RH  063%=      5-min Rain = 0
KCO2 240849Z 16005KT 11/04 A3001 RMK A01 T01080040  RH  063%=      5-min Rain = 0
KCO2 240850Z 16005KT 11/04 A3001 RMK A01 T01080041  RH  063%=      5-min Rain = 0
KCO2 240851Z 16006KT 11/04 A3001 RMK A01 T01080041  RH  063%=      5-min Rain = 0
KCO2 240852Z 16005KT 11/04 A3001 RMK A01 T01080040  RH  063%=      5-min Rain = 0
KCO2 240853Z 16005KT 11/04 A3001 RMK A01 T01080039  RH  063%=      5-min Rain = 0
KCO2 240854Z 16006KT 11/04 A3001 RMK A01 T01070039  RH  063%=      5-min Rain = 0
KCO2 240855Z 16005KT 11/04 A3001 RMK A01 T01060038  RH  063%=      5-min Rain = 0
KCO2 240856Z 16005KT 11/04 A3001 RMK A01 T01060038  RH  063%=      5-min Rain = 0
KCO2 240857Z 16005KT 11/04 A3001 RMK A01 T01060038  RH  063%=      5-min Rain = 0
KCO2 240858Z 16005KT 11/04 A3001 RMK A01 T01060038  RH  063%=      5-min Rain = 0
KCO2 240859Z 16005KT 11/04 A3001 RMK A01 T01060038  RH  063%=      5-min Rain = 0
KCO2 240900Z 17005KT 11/04 A3001 RMK A01 T01050037  RH  063%=      5-min Rain = 0
KCO2 240901Z 17005KT 11/04 A3001 RMK A01 T01050037  RH  063%=      5-min Rain = 0
KCO2 240902Z 17005KT 10/04 A3001 RMK A01 T01040037  RH  063%=      5-min Rain = 0
KCO2 240903Z 17005KT 10/04 A3001 RMK A01 T01040038  RH  064%=      5-min Rain = 0
KCO2 240904Z 17005KT 10/04 A3001 RMK A01 T01040037  RH  063%=      5-min Rain = 0
KCO2 240905Z 17005KT 10/04 A3001 RMK A01 T01040037  RH  063%=      5-min Rain = 0
KCO2 240906Z 17005KT 10/04 A3001 RMK A01 T01040037  RH  063%=      5-min Rain = 0
KCO2 240907Z 17005KT 11/04 A3001 RMK A01 T01050038  RH  063%=      5-min Rain = 0
KCO2 240908Z 17005KT 11/04 A3001 RMK A01 T01050038  RH  063%=      5-min Rain = 0
KCO2 240909Z 17005KT 11/04 A3001 RMK A01 T01050038  RH  063%=      5-min Rain = 0
KCO2 240910Z 17005KT 10/04 A3001 RMK A01 T01040038  RH  063%=      5-min Rain = 0
KCO2 240911Z 17005KT 10/04 A3001 RMK A01 T01030038  RH  064%=      5-min Rain = 0
KCO2 240912Z 17005KT 10/04 A3001 RMK A01 T01030039  RH  064%=      5-min Rain = 0
KCO2 240913Z 17005KT 10/04 A3001 RMK A01 T01030038  RH  064%=      5-min Rain = 0
KCO2 240914Z 17005KT 10/04 A3001 RMK A01 T01020038  RH  064%=      5-min Rain = 0
KCO2 240915Z 16005KT 10/04 A3001 RMK A01 T01010038  RH  065%=      5-min Rain = 0
KCO2 240916Z 16005KT 10/04 A3001 RMK A01 T01010038  RH  065%=      5-min Rain = 0
KCO2 240917Z 16005KT 10/04 A3001 RMK A01 T01000038  RH  065%=      5-min Rain = 0
KCO2 240918Z 16005KT 10/04 A3001 RMK A01 T00990038  RH  066%=      5-min Rain = 0
KCO2 240919Z 17005KT 10/04 A3001 RMK A01 T00990038  RH  066%=      5-min Rain = 0
KCO2 240920Z 17005KT 10/04 A3001 RMK A01 T00990039  RH  066%=      5-min Rain = 0
KCO2 240921Z 16005KT 10/04 A3001 RMK A01 T01000039  RH  066%=      5-min Rain = 0
KCO2 240922Z 17005KT 10/04 A3001 RMK A01 T01000040  RH  066%=      5-min Rain = 0
KCO2 240923Z 17005KT 10/04 A3001 RMK A01 T01000041  RH  066%=      5-min Rain = 0
KCO2 240924Z 17004KT 10/04 A3001 RMK A01 T01000041  RH  067%=      5-min Rain = 0
KCO2 240925Z 17004KT 10/04 A3001 RMK A01 T01000041  RH  067%=      5-min Rain = 0
KCO2 240926Z 17004KT 10/04 A3001 RMK A01 T01000042  RH  067%=      5-min Rain = 0
KCO2 240927Z 17004KT 10/04 A3001 RMK A01 T01000042  RH  067%=      5-min Rain = 0
KCO2 240928Z 17004KT 10/04 A3001 RMK A01 T01010043  RH  067%=      5-min Rain = 0
KCO2 240929Z 17004KT 10/04 A3001 RMK A01 T01020043  RH  067%=      5-min Rain = 0
KCO2 240930Z 17004KT 10/04 A3001 RMK A01 T01020044  RH  067%=      5-min Rain = 0
KCO2 240931Z 18004KT 10/05 A3001 RMK A01 T01040045  RH  067%=      5-min Rain = 0
KCO2 240932Z 17004KT 11/05 A3001 RMK A01 T01050045  RH  067%=      5-min Rain = 0
KCO2 240933Z 17004KT 11/05 A3001 RMK A01 T01050045  RH  066%=      5-min Rain = 0
KCO2 240934Z 17004KT 11/05 A3001 RMK A01 T01070046  RH  066%=      5-min Rain = 0
KCO2 240935Z 17004KT 11/05 A3001 RMK A01 T01080047  RH  066%=      5-min Rain = 0
KCO2 240936Z 17004KT 11/05 A3001 RMK A01 T01090047  RH  065%=      5-min Rain = 0
KCO2 240937Z 17004KT 11/05 A3001 RMK A01 T01090047  RH  065%=      5-min Rain = 0
KCO2 240938Z 17004KT 11/05 A3001 RMK A01 T01090047  RH  065%=      5-min Rain = 0
KCO2 240939Z 16004KT 11/05 A3001 RMK A01 T01090046  RH  065%=      5-min Rain = 0
KCO2 240940Z 16004KT 11/05 A3001 RMK A01 T01090045  RH  065%=      5-min Rain = 0
KCO2 240941Z 16004KT 11/05 A3001 RMK A01 T01070045  RH  065%=      5-min Rain = 0
KCO2 240942Z 16004KT 11/04 A3001 RMK A01 T01060044  RH  065%=      5-min Rain = 0
KCO2 240943Z 16005KT 11/04 A3001 RMK A01 T01050044  RH  066%=      5-min Rain = 0
KCO2 240944Z 16005KT 10/05 A3001 RMK A01 T01030045  RH  067%=      5-min Rain = 0
KCO2 240945Z 16005KT 10/05 A3001 RMK A01 T01020045  RH  068%=      5-min Rain = 0
KCO2 240946Z 16005KT 10/05 A3001 RMK A01 T01010045  RH  068%=      5-min Rain = 0
KCO2 240947Z 15005KT 10/05 A3001 RMK A01 T01000045  RH  069%=      5-min Rain = 0
KCO2 240948Z 15005KT 10/05 A3001 RMK A01 T01000045  RH  069%=      5-min Rain = 0
KCO2 240949Z 15005KT 10/05 A3001 RMK A01 T00990046  RH  069%=      5-min Rain = 0
KCO2 240950Z 16005KT 10/05 A3001 RMK A01 T00990046  RH  069%=      5-min Rain = 0
KCO2 240951Z 16005KT 10/05 A3001 RMK A01 T00990045  RH  069%=      5-min Rain = 0
KCO2 240952Z 16005KT 10/05 A3001 RMK A01 T00980045  RH  069%=      5-min Rain = 0
KCO2 240953Z 15005KT 10/05 A3001 RMK A01 T00980046  RH  070%=      5-min Rain = 0
KCO2 240954Z 16006KT 10/05 A3001 RMK A01 T00980047  RH  071%=      5-min Rain = 0
KCO2 240955Z 16006KT 10/05 A3001 RMK A01 T00970048  RH  071%=      5-min Rain = 0
KCO2 240956Z 16006KT 10/05 A3001 RMK A01 T00970049  RH  072%=      5-min Rain = 0
KCO2 240957Z 16005KT 10/05 A3001 RMK A01 T00970050  RH  073%=      5-min Rain = 0
KCO2 240958Z 16005KT 10/05 A3001 RMK A01 T00970050  RH  073%=      5-min Rain = 0
KCO2 240959Z 16005KT 10/05 A3001 RMK A01 T00970050  RH  073%=      5-min Rain = 0
KCO2 241000Z 16005KT 10/05 A3001 RMK A01 T00970050  RH  073%=      5-min Rain = 0
KCO2 241001Z 16005KT 10/05 A3001 RMK A01 T00970050  RH  073%=      5-min Rain = 0
KCO2 241002Z 16004KT 10/05 A3001 RMK A01 T00970050  RH  072%=      5-min Rain = 0
KCO2 241003Z 16004KT 10/05 A3001 RMK A01 T00980050  RH  072%=      5-min Rain = 0
KCO2 241004Z 16004KT 10/05 A3001 RMK A01 T00990050  RH  071%=      5-min Rain = 0
KCO2 241005Z 16005KT 10/05 A3001 RMK A01 T01010049  RH  070%=      5-min Rain = 0
KCO2 241006Z 15005KT 10/05 A3001 RMK A01 T01020048  RH  069%=      5-min Rain = 0
KCO2 241007Z 15005KT 10/05 A3001 RMK A01 T01020048  RH  069%=      5-min Rain = 0
KCO2 241008Z 15005KT 10/05 A3001 RMK A01 T01020047  RH  069%=      5-min Rain = 0
KCO2 241009Z 15005KT 10/05 A3001 RMK A01 T01010046  RH  069%=      5-min Rain = 0
KCO2 241010Z 15005KT 10/05 A3001 RMK A01 T00990046  RH  070%=      5-min Rain = 0
KCO2 241011Z 15005KT 10/05 A3001 RMK A01 T00980046  RH  070%=      5-min Rain = 0
KCO2 241012Z 15005KT 10/05 A3001 RMK A01 T00970046  RH  070%=      5-min Rain = 0
KCO2 241013Z 15005KT 10/05 A3001 RMK A01 T00960046  RH  071%=      5-min Rain = 0
KCO2 241014Z 14005KT 10/05 A3001 RMK A01 T00960046  RH  071%=      5-min Rain = 0
KCO2 241015Z 14005KT 10/05 A3001 RMK A01 T00960045  RH  071%=      5-min Rain = 0
KCO2 241016Z 14005KT 10/05 A3001 RMK A01 T00950045  RH  071%=      5-min Rain = 0
KCO2 241017Z 15005KT 10/05 A3001 RMK A01 T00950045  RH  071%=      5-min Rain = 0
KCO2 241018Z 14005KT 10/05 A3001 RMK A01 T00950045  RH  071%=      5-min Rain = 0
KCO2 241019Z 14005KT 09/05 A3001 RMK A01 T00940045  RH  072%=      5-min Rain = 0
KCO2 241020Z 14005KT 09/05 A3001 RMK A01 T00940046  RH  072%=      5-min Rain = 0
KCO2 241021Z 14005KT 09/05 A3001 RMK A01 T00940045  RH  072%=      5-min Rain = 0
KCO2 241022Z 14005KT 09/05 A3001 RMK A01 T00930045  RH  072%=      5-min Rain = 0
KCO2 241023Z 14005KT 09/05 A3001 RMK A01 T00930045  RH  072%=      5-min Rain = 0
KCO2 241024Z 14005KT 09/05 A3001 RMK A01 T00930046  RH  072%=      5-min Rain = 0
KCO2 241025Z 14005KT 09/05 A3001 RMK A01 T00920046  RH  073%=      5-min Rain = 0
KCO2 241026Z 13004KT 09/05 A3001 RMK A01 T00930047  RH  073%=      5-min Rain = 0
KCO2 241027Z 13005KT 09/05 A3001 RMK A01 T00930048  RH  073%=      5-min Rain = 0
KCO2 241028Z 13005KT 09/05 A3001 RMK A01 T00930047  RH  073%=      5-min Rain = 0
KCO2 241029Z 14005KT 09/05 A3001 RMK A01 T00930047  RH  073%=      5-min Rain = 0
KCO2 241030Z 14005KT 09/05 A3001 RMK A01 T00920046  RH  073%=      5-min Rain = 0
KCO2 241031Z 14005KT 09/05 A3001 RMK A01 T00910046  RH  074%=      5-min Rain = 0
KCO2 241032Z 13005KT 09/05 A3001 RMK A01 T00900047  RH  074%=      5-min Rain = 0
KCO2 241033Z 13005KT 09/05 A3002 RMK A01 T00890047  RH  075%=      5-min Rain = 0
KCO2 241034Z 13005KT 09/05 A3002 RMK A01 T00890048  RH  076%=      5-min Rain = 0
KCO2 241035Z 13006KT 09/05 A3002 RMK A01 T00890049  RH  076%=      5-min Rain = 0
KCO2 241036Z 13005KT 09/05 A3002 RMK A01 T00890049  RH  076%=      5-min Rain = 0
KCO2 241037Z 13005KT 09/05 A3002 RMK A01 T00880050  RH  077%=      5-min Rain = 0
KCO2 241038Z 13005KT 09/05 A3002 RMK A01 T00880050  RH  077%=      5-min Rain = 0
KCO2 241039Z 13005KT 09/05 A3002 RMK A01 T00880050  RH  077%=      5-min Rain = 0
KCO2 241040Z 13005KT 09/05 A3002 RMK A01 T00880051  RH  077%=      5-min Rain = 0
KCO2 241041Z 13005KT 09/05 A3002 RMK A01 T00880051  RH  077%=      5-min Rain = 0
KCO2 241042Z 13005KT 09/05 A3002 RMK A01 T00880051  RH  078%=      5-min Rain = 0
KCO2 241043Z 13005KT 09/05 A3002 RMK A01 T00880052  RH  078%=      5-min Rain = 0
KCO2 241044Z 13006KT 09/05 A3002 RMK A01 T00890053  RH  078%=      5-min Rain = 0
KCO2 241045Z 12006KT 09/05 A3002 RMK A01 T00890054  RH  079%=      5-min Rain = 0
KCO2 241046Z 12006KT 09/06 A3002 RMK A01 T00900055  RH  079%=      5-min Rain = 0
KCO2 241047Z 12006KT 09/06 A3002 RMK A01 T00900055  RH  079%=      5-min Rain = 0
KCO2 241048Z 12006KT 09/06 A3002 RMK A01 T00900056  RH  079%=      5-min Rain = 0
KCO2 241049Z 12006KT 09/06 A3002 RMK A01 T00890055  RH  080%=      5-min Rain = 0
KCO2 241050Z 12006KT 09/06 A3002 RMK A01 T00890056  RH  080%=      5-min Rain = 0
KCO2 241051Z 12006KT 09/06 A3002 RMK A01 T00880056  RH  080%=      5-min Rain = 0
KCO2 241052Z 12006KT 09/06 A3002 RMK A01 T00880056  RH  080%=      5-min Rain = 0
KCO2 241053Z 12006KT 09/06 A3002 RMK A01 T00880057  RH  081%=      5-min Rain = 0
KCO2 241054Z 12006KT 09/06 A3002 RMK A01 T00890060  RH  082%=      5-min Rain = 0
KCO2 241055Z 11006KT 09/06 A3002 RMK A01 T00900061  RH  082%=      5-min Rain = 0
KCO2 241056Z 11006KT 09/06 A3002 RMK A01 T00910062  RH  082%=      5-min Rain = 0
KCO2 241057Z 11006KT 09/06 A3002 RMK A01 T00920063  RH  082%=      5-min Rain = 0
KCO2 241058Z 11006KT 09/06 A3002 RMK A01 T00920062  RH  082%=      5-min Rain = 0
KCO2 241059Z 11006KT 09/06 A3002 RMK A01 T00920063  RH  082%=      5-min Rain = 0
KCO2 241100Z 11006KT 09/06 A3002 RMK A01 T00920063  RH  082%=      5-min Rain = 0
KCO2 241101Z 12006KT 09/06 A3002 RMK A01 T00920064  RH  083%=      5-min Rain = 0
KCO2 241102Z 11005KT 09/07 A3002 RMK A01 T00920065  RH  083%=      5-min Rain = 0
KCO2 241103Z 12005KT 09/07 A3002 RMK A01 T00930066  RH  084%=      5-min Rain = 0
KCO2 241104Z 12005KT 09/07 A3002 RMK A01 T00940068  RH  084%=      5-min Rain = 0
KCO2 241105Z 12005KT 10/07 A3002 RMK A01 T00950068  RH  084%=      5-min Rain = 0
KCO2 241106Z 11005KT 10/07 A3002 RMK A01 T00960069  RH  083%=      5-min Rain = 0
KCO2 241107Z 12005KT 10/07 A3002 RMK A01 T00970069  RH  083%=      5-min Rain = 0
KCO2 241108Z 12005KT 10/07 A3002 RMK A01 T00970070  RH  083%=      5-min Rain = 0
KCO2 241109Z 12005KT 10/07 A3002 RMK A01 T00970070  RH  083%=      5-min Rain = 0
KCO2 241110Z 13005KT 10/07 A3002 RMK A01 T00970071  RH  084%=      5-min Rain = 0
KCO2 241111Z 12005KT 10/07 A3002 RMK A01 T00970071  RH  084%=      5-min Rain = 0
KCO2 241112Z 13005KT 10/07 A3002 RMK A01 T00980072  RH  084%=      5-min Rain = 0
KCO2 241113Z 12004KT 10/07 A3002 RMK A01 T00980073  RH  084%=      5-min Rain = 0
KCO2 241114Z 12004KT 10/07 A3002 RMK A01 T00980073  RH  084%=      5-min Rain = 0
KCO2 241115Z 12004KT 10/07 A3002 RMK A01 T00980072  RH  084%=      5-min Rain = 0
KCO2 241116Z 12004KT 10/07 A3002 RMK A01 T00980072  RH  084%=      5-min Rain = 0
KCO2 241117Z 12004KT 10/07 A3002 RMK A01 T00970072  RH  084%=      5-min Rain = 0
KCO2 241118Z 12004KT 10/07 A3002 RMK A01 T00970074  RH  085%=      5-min Rain = 0
KCO2 241119Z 12004KT 10/08 A3002 RMK A01 T00980075  RH  086%=      5-min Rain = 0
KCO2 241120Z 12004KT 10/08 A3002 RMK A01 T00980077  RH  087%=      5-min Rain = 0
KCO2 241121Z 12004KT 10/08 A3002 RMK A01 T00990078  RH  087%=      5-min Rain = 0
KCO2 241122Z 12004KT 10/08 A3003 RMK A01 T01000080  RH  087%=      5-min Rain = 0
KCO2 241123Z 13004KT 10/08 A3003 RMK A01 T01010078  RH  086%=      5-min Rain = 0
KCO2 241124Z 13004KT 10/08 A3003 RMK A01 T01000077  RH  086%=      5-min Rain = 0
KCO2 241125Z 13004KT 10/08 A3003 RMK A01 T01000078  RH  086%=      5-min Rain = 0
KCO2 241126Z 12004KT 10/08 A3003 RMK A01 T01000080  RH  087%=      5-min Rain = 0
KCO2 241127Z 13004KT 10/08 A3003 RMK A01 T01000080  RH  087%=      5-min Rain = 0
KCO2 241128Z 12004KT 10/08 A3003 RMK A01 T01000080  RH  087%=      5-min Rain = 0
KCO2 241129Z 12004KT 10/08 A3003 RMK A01 T01000080  RH  087%=      5-min Rain = 0
KCO2 241130Z 13004KT 10/08 A3003 RMK A01 T01000081  RH  088%=      5-min Rain = 0
KCO2 241131Z 12004KT 10/08 A3003 RMK A01 T01000081  RH  088%=      5-min Rain = 0
KCO2 241132Z 12005KT 10/08 A3003 RMK A01 T01010082  RH  088%=      5-min Rain = 0
KCO2 241133Z 13005KT 10/08 A3003 RMK A01 T01010082  RH  088%=      5-min Rain = 0
KCO2 241134Z 12004KT 10/08 A3003 RMK A01 T01010082  RH  088%=      5-min Rain = 0
KCO2 241135Z 13004KT 10/08 A3003 RMK A01 T01010082  RH  088%=      5-min Rain = 0
KCO2 241136Z 12004KT 10/08 A3003 RMK A01 T01020081  RH  087%=      5-min Rain = 0
KCO2 241137Z 12004KT 10/08 A3003 RMK A01 T01020082  RH  088%=      5-min Rain = 0
KCO2 241138Z 13004KT 10/08 A3003 RMK A01 T01020083  RH  088%=      5-min Rain = 0
KCO2 241139Z 13004KT 10/09 A3003 RMK A01 T01030085  RH  089%=      5-min Rain = 0
KCO2 241140Z 13004KT 10/09 A3003 RMK A01 T01040087  RH  089%=      5-min Rain = 0
KCO2 241141Z 13004KT 11/09 A3003 RMK A01 T01060090  RH  090%=      5-min Rain = 0
KCO2 241142Z 13004KT 11/09 A3003 RMK A01 T01070091  RH  090%=      5-min Rain = 0
KCO2 241143Z 13004KT 11/09 A3003 RMK A01 T01080093  RH  090%=      5-min Rain = 0
KCO2 241144Z 14004KT 11/09 A3003 RMK A01 T01090094  RH  091%=      5-min Rain = 0
KCO2 241145Z 13004KT 11/09 A3003 RMK A01 T01090094  RH  090%=      5-min Rain = 0
KCO2 241146Z 13004KT 11/10 A3003 RMK A01 T01100095  RH  090%=      5-min Rain = 0
KCO2 241147Z 13004KT 11/09 A3003 RMK A01 T01100094  RH  090%=      5-min Rain = 0
KCO2 241148Z 13004KT 11/09 A3003 RMK A01 T01090093  RH  090%=      5-min Rain = 0
KCO2 241149Z 13004KT 11/09 A3003 RMK A01 T01090094  RH  090%=      5-min Rain = 0
KCO2 241150Z 13005KT 11/09 A3003 RMK A01 T01090094  RH  090%=      5-min Rain = 0
KCO2 241151Z 13005KT 11/09 A3003 RMK A01 T01100094  RH  090%=      5-min Rain = 0
KCO2 241152Z 13005KT 11/09 A3003 RMK A01 T01090094  RH  090%=      5-min Rain = 0
KCO2 241153Z 14005KT 11/09 A3003 RMK A01 T01090094  RH  091%=      5-min Rain = 0
KCO2 241154Z 14005KT 11/09 A3003 RMK A01 T01090094  RH  091%=      5-min Rain = 0
KCO2 241155Z 14005KT 11/10 A3003 RMK A01 T01090095  RH  091%=      5-min Rain = 0
KCO2 241156Z 14004KT 11/10 A3002 RMK A01 T01090095  RH  091%=      5-min Rain = 0
KCO2 241157Z 14004KT 11/10 A3002 RMK A01 T01090095  RH  091%=      5-min Rain = 0
KCO2 241158Z 14005KT 11/10 A3002 RMK A01 T01090095  RH  091%=      5-min Rain = 0
KCO2 241159Z 14005KT 11/10 A3002 RMK A01 T01090095  RH  091%=      5-min Rain = 0
KCO2 241200Z 14005KT 11/10 A3002 RMK A01 T01090095  RH  091%=      5-min Rain = 0
KCO2 241201Z 14005KT 11/10 A3002 RMK A01 T01080095  RH  091%=      5-min Rain = 0
KCO2 241202Z 14005KT 11/10 A3002 RMK A01 T01080095  RH  092%=      5-min Rain = 0
KCO2 241203Z 14005KT 11/10 A3002 RMK A01 T01070095  RH  092%=      5-min Rain = 0
KCO2 241204Z 14005KT 11/10 A3003 RMK A01 T01070095  RH  092%=      5-min Rain = 0
KCO2 241205Z 15005KT 11/10 A3003 RMK A01 T01070096  RH  092%=      5-min Rain = 0
KCO2 241206Z 15005KT 11/10 A3003 RMK A01 T01070096  RH  093%=      5-min Rain = 0
KCO2 241207Z 15005KT 11/10 A3003 RMK A01 T01070096  RH  093%=      5-min Rain = 0
KCO2 241208Z 15005KT 11/10 A3003 RMK A01 T01070097  RH  094%=      5-min Rain = 0
KCO2 241209Z 15005KT 11/10 A3003 RMK A01 T01070098  RH  094%=      5-min Rain = 0
KCO2 241210Z 15005KT 11/10 A3003 RMK A01 T01070098  RH  094%=      5-min Rain = 0
KCO2 241211Z 15005KT 11/10 A3003 RMK A01 T01070098  RH  094%=      5-min Rain = 0
KCO2 241212Z 15005KT 11/10 A3003 RMK A01 T01070098  RH  094%=      5-min Rain = 0
KCO2 241213Z 15005KT 11/10 A3003 RMK A01 T01070099  RH  094%=      5-min Rain = 0
KCO2 241214Z 15005KT 11/10 A3003 RMK A01 T01070099  RH  095%=      5-min Rain = 0
KCO2 241215Z 15005KT 11/10 A3003 RMK A01 T01070098  RH  095%=      5-min Rain = 0
KCO2 241216Z 16005KT 11/10 A3003 RMK A01 T01070099  RH  095%=      5-min Rain = 0
KCO2 241217Z 16006KT 11/10 A3003 RMK A01 T01060099  RH  095%=      5-min Rain = 0
KCO2 241218Z 16006KT 11/10 A3003 RMK A01 T01060099  RH  095%=      5-min Rain = 0
KCO2 241219Z 16005KT 11/10 A3003 RMK A01 T01070100  RH  095%=      5-min Rain = 0
KCO2 241220Z 16005KT 11/10 A3003 RMK A01 T01080101  RH  096%=      5-min Rain = 0
KCO2 241221Z 16005KT 11/10 A3003 RMK A01 T01080101  RH  096%=      5-min Rain = 0
KCO2 241222Z 16005KT 11/10 A3003 RMK A01 T01080101  RH  096%=      5-min Rain = 0
KCO2 241223Z 16005KT 11/10 A3003 RMK A01 T01080101  RH  096%=      5-min Rain = 0
KCO2 241224Z 16005KT 11/10 A3003 RMK A01 T01080101  RH  096%=      5-min Rain = 0
KCO2 241225Z 16005KT 11/10 A3003 RMK A01 T01080102  RH  096%=      5-min Rain = 0
KCO2 241226Z 16006KT 11/10 A3003 RMK A01 T01080101  RH  096%=      5-min Rain = 0
KCO2 241227Z 16006KT 11/10 A3003 RMK A01 T01070101  RH  096%=      5-min Rain = 0
KCO2 241228Z 16005KT 11/10 A3003 RMK A01 T01070100  RH  096%=      5-min Rain = 0
KCO2 241229Z 16005KT 11/10 A3003 RMK A01 T01060100  RH  096%=      5-min Rain = 0
KCO2 241230Z 16005KT 11/10 A3003 RMK A01 T01060100  RH  096%=      5-min Rain = 0
KCO2 241231Z 15005KT 11/10 A3003 RMK A01 T01060100  RH  096%=      5-min Rain = 0
KCO2 241232Z 15005KT 11/10 A3003 RMK A01 T01060100  RH  096%=      5-min Rain = 0
KCO2 241233Z 15005KT 11/10 A3003 RMK A01 T01060100  RH  096%=      5-min Rain = 0
KCO2 241234Z 15005KT 11/10 A3003 RMK A01 T01050099  RH  096%=      5-min Rain = 0
KCO2 241235Z 15005KT 11/10 A3003 RMK A01 T01050099  RH  096%=      5-min Rain = 0
KCO2 241236Z 15005KT 11/10 A3003 RMK A01 T01050099  RH  096%=      5-min Rain = 0
KCO2 241237Z 15005KT 10/10 A3003 RMK A01 T01040098  RH  096%=      5-min Rain = 0
KCO2 241238Z 15005KT 10/10 A3003 RMK A01 T01040099  RH  096%=      5-min Rain = 0
KCO2 241239Z 15005KT 10/10 A3004 RMK A01 T01040099  RH  096%=      5-min Rain = 0
KCO2 241240Z 16005KT 10/10 A3004 RMK A01 T01040099  RH  097%=      5-min Rain = 0
KCO2 241241Z 15005KT 10/10 A3004 RMK A01 T01040099  RH  097%=      5-min Rain = 0
KCO2 241242Z 15005KT 10/10 A3004 RMK A01 T01040099  RH  097%=      5-min Rain = 0
KCO2 241243Z 15005KT 11/10 A3004 RMK A01 T01050100  RH  097%=      5-min Rain = 0
KCO2 241244Z 15005KT 11/10 A3004 RMK A01 T01050100  RH  097%=      5-min Rain = 0
KCO2 241245Z 15005KT 11/10 A3004 RMK A01 T01050101  RH  097%=      5-min Rain = 0
KCO2 241246Z 15005KT 11/10 A3004 RMK A01 T01060101  RH  097%=      5-min Rain = 0
KCO2 241247Z 15005KT 11/10 A3004 RMK A01 T01060102  RH  097%=      5-min Rain = 0
KCO2 241248Z 15005KT 11/10 A3004 RMK A01 T01060102  RH  097%=      5-min Rain = 0
KCO2 241249Z 15005KT 11/10 A3004 RMK A01 T01070103  RH  097%=      5-min Rain = 0
KCO2 241250Z 15005KT 11/10 A3004 RMK A01 T01070103  RH  097%=      5-min Rain = 0
KCO2 241251Z 15005KT 11/10 A3004 RMK A01 T01070103  RH  097%=      5-min Rain = 0
KCO2 241252Z 15005KT 11/10 A3004 RMK A01 T01080104  RH  097%=      5-min Rain = 0
KCO2 241253Z 15005KT 11/11 A3004 RMK A01 T01090105  RH  098%=      5-min Rain = 0
KCO2 241254Z 15005KT 11/11 A3004 RMK A01 T01090106  RH  098%=      5-min Rain = 0
KCO2 241255Z 15005KT 11/11 A3004 RMK A01 T01110107  RH  098%=      5-min Rain = 0
KCO2 241256Z 15005KT 11/11 A3004 RMK A01 T01120108  RH  098%=      5-min Rain = 0
KCO2 241257Z 15005KT 11/11 A3004 RMK A01 T01120109  RH  098%=      5-min Rain = 0
KCO2 241258Z 15005KT 11/11 A3004 RMK A01 T01130110  RH  098%=      5-min Rain = 0
KCO2 241259Z 16004KT 11/11 A3004 RMK A01 T01140111  RH  098%=      5-min Rain = 0
KCO2 241300Z 17004KT 12/11 A3004 RMK A01 T01150111  RH  098%=      5-min Rain = 0
KCO2 241301Z 17004KT 12/11 A3004 RMK A01 T01160113  RH  098%=      5-min Rain = 0
KCO2 241302Z 17004KT 12/11 A3004 RMK A01 T01170114  RH  098%=      5-min Rain = 0
KCO2 241303Z 18004KT 12/12 A3004 RMK A01 T01180115  RH  098%=      5-min Rain = 0
KCO2 241304Z 18004KT 12/12 A3004 RMK A01 T01200117  RH  098%=      5-min Rain = 0
KCO2 241305Z 18005KT 12/12 A3004 RMK A01 T01210118  RH  098%=      5-min Rain = 0
KCO2 241306Z 17005KT 12/12 A3004 RMK A01 T01220119  RH  098%=      5-min Rain = 0
KCO2 241307Z 18005KT 12/12 A3004 RMK A01 T01230120  RH  098%=      5-min Rain = 0
KCO2 241308Z 18005KT 12/12 A3004 RMK A01 T01240121  RH  098%=      5-min Rain = 0
KCO2 241309Z 18005KT 13/12 A3004 RMK A01 T01250122  RH  098%=      5-min Rain = 0
KCO2 241310Z 18004KT 13/12 A3005 RMK A01 T01260123  RH  098%=      5-min Rain = 0
KCO2 241311Z 18005KT 13/12 A3005 RMK A01 T01260122  RH  098%=      5-min Rain = 0
KCO2 241312Z 17004KT 13/12 A3005 RMK A01 T01260122  RH  098%=      5-min Rain = 0
KCO2 241313Z 17004KT 13/12 A3005 RMK A01 T01260122  RH  098%=      5-min Rain = 0
KCO2 241314Z 18003KT 13/12 A3005 RMK A01 T01260122  RH  098%=      5-min Rain = 0
KCO2 241315Z 18003KT 13/12 A3005 RMK A01 T01260122  RH  097%=      5-min Rain = 0
KCO2 241316Z 18003KT 13/12 A3005 RMK A01 T01260122  RH  097%=      5-min Rain = 0
KCO2 241317Z 17003KT 13/12 A3005 RMK A01 T01260122  RH  097%=      5-min Rain = 0
KCO2 241318Z 17003KT 13/12 A3005 RMK A01 T01260122  RH  097%=      5-min Rain = 0
KCO2 241319Z 17002KT 13/12 A3005 RMK A01 T01250121  RH  097%=      5-min Rain = 0
KCO2 241320Z 17002KT 13/12 A3005 RMK A01 T01250121  RH  097%=      5-min Rain = 0
KCO2 241321Z 17002KT 13/12 A3005 RMK A01 T01250120  RH  097%=      5-min Rain = 0
KCO2 241322Z 17002KT 13/12 A3005 RMK A01 T01250120  RH  097%=      5-min Rain = 0
KCO2 241323Z 17002KT 13/12 A3005 RMK A01 T01250120  RH  097%=      5-min Rain = 0
KCO2 241324Z 17002KT 12/12 A3005 RMK A01 T01240120  RH  097%=      5-min Rain = 0
KCO2 241325Z 17002KT 12/12 A3005 RMK A01 T01240120  RH  097%=      5-min Rain = 0
KCO2 241326Z 17002KT 12/12 A3005 RMK A01 T01240119  RH  097%=      5-min Rain = 0
KCO2 241327Z 17002KT 12/12 A3005 RMK A01 T01240119  RH  097%=      5-min Rain = 0
KCO2 241328Z 16002KT 12/12 A3005 RMK A01 T01240119  RH  097%=      5-min Rain = 0
KCO2 241329Z 16002KT 12/12 A3005 RMK A01 T01240119  RH  097%=      5-min Rain = 0
KCO2 241330Z 16002KT 12/12 A3005 RMK A01 T01240119  RH  097%=      5-min Rain = 0
KCO2 241331Z 16002KT 13/12 A3006 RMK A01 T01250119  RH  097%=      5-min Rain = 0
KCO2 241332Z 16002KT 12/12 A3006 RMK A01 T01240119  RH  096%=      5-min Rain = 0
KCO2 241333Z 16002KT 12/12 A3006 RMK A01 T01240119  RH  096%=      5-min Rain = 0
KCO2 241334Z 16002KT 12/12 A3006 RMK A01 T01240119  RH  096%=      5-min Rain = 0
KCO2 241335Z 16002KT 12/12 A3006 RMK A01 T01240119  RH  096%=      5-min Rain = 0
KCO2 241336Z 16002KT 13/12 A3006 RMK A01 T01250119  RH  096%=      5-min Rain = 0
KCO2 241337Z 16002KT 13/12 A3006 RMK A01 T01250120  RH  096%=      5-min Rain = 0
KCO2 241338Z 16002KT 13/12 A3006 RMK A01 T01260120  RH  096%=      5-min Rain = 0
KCO2 241339Z 16002KT 13/12 A3006 RMK A01 T01270121  RH  096%=      5-min Rain = 0
KCO2 241340Z 16002KT 13/12 A3006 RMK A01 T01280122  RH  097%=      5-min Rain = 0
KCO2 241341Z 15002KT 13/12 A3006 RMK A01 T01290124  RH  097%=      5-min Rain = 0
KCO2 241342Z 14001KT 13/13 A3006 RMK A01 T01300125  RH  097%=      5-min Rain = 0
KCO2 241343Z 14001KT 13/13 A3006 RMK A01 T01310126  RH  097%=      5-min Rain = 0
KCO2 241344Z 11001KT 13/13 A3006 RMK A01 T01320126  RH  097%=      5-min Rain = 0
KCO2 241345Z 11001KT 13/13 A3006 RMK A01 T01330127  RH  096%=      5-min Rain = 0
KCO2 241346Z 10001KT 13/13 A3006 RMK A01 T01330126  RH  096%=      5-min Rain = 0
KCO2 241347Z 10001KT 13/13 A3006 RMK A01 T01330126  RH  096%=      5-min Rain = 0
KCO2 241348Z 10000KT 13/13 A3006 RMK A01 T01330127  RH  096%=      5-min Rain = 0
KCO2 241349Z 08001KT 13/13 A3006 RMK A01 T01340127  RH  096%=      5-min Rain = 0
KCO2 241350Z 10001KT 13/13 A3007 RMK A01 T01340127  RH  095%=      5-min Rain = 0
KCO2 241351Z 10001KT 13/13 A3007 RMK A01 T01340127  RH  095%=      5-min Rain = 0
KCO2 241352Z 11001KT 14/13 A3007 RMK A01 T01350128  RH  095%=      5-min Rain = 0
KCO2 241353Z 11000KT 14/13 A3007 RMK A01 T01360129  RH  095%=      5-min Rain = 0
KCO2 241354Z 15000KT 14/13 A3007 RMK A01 T01370129  RH  095%=      5-min Rain = 0
KCO2 241355Z 12001KT 14/13 A3007 RMK A01 T01370129  RH  095%=      5-min Rain = 0
KCO2 241356Z 11001KT 14/13 A3007 RMK A01 T01370129  RH  094%=      5-min Rain = 0
KCO2 241357Z 13001KT 14/13 A3007 RMK A01 T01380129  RH  094%=      5-min Rain = 0
KCO2 241358Z 11002KT 14/13 A3007 RMK A01 T01380129  RH  094%=      5-min Rain = 0
KCO2 241359Z 11002KT 14/13 A3007 RMK A01 T01390129  RH  094%=      5-min Rain = 0
KCO2 241400Z 13002KT 14/13 A3007 RMK A01 T01400130  RH  094%=      5-min Rain = 0
KCO2 241401Z 14002KT 14/13 A3007 RMK A01 T01400130  RH  094%=      5-min Rain = 0
KCO2 241402Z 13002KT 14/13 A3007 RMK A01 T01410130  RH  093%=      5-min Rain = 0
KCO2 241403Z 12002KT 14/13 A3007 RMK A01 T01410131  RH  093%=      5-min Rain = 0
KCO2 241404Z 13002KT 14/13 A3007 RMK A01 T01420131  RH  093%=      5-min Rain = 0
KCO2 241405Z 12002KT 14/13 A3007 RMK A01 T01420131  RH  093%=      5-min Rain = 0
KCO2 241406Z 11002KT 14/13 A3007 RMK A01 T01430131  RH  093%=      5-min Rain = 0
KCO2 241407Z 11003KT 14/13 A3007 RMK A01 T01440132  RH  093%=      5-min Rain = 0
KCO2 241408Z 11002KT 14/13 A3007 RMK A01 T01440132  RH  092%=      5-min Rain = 0
KCO2 241409Z 11002KT 15/13 A3007 RMK A01 T01460133  RH  092%=      5-min Rain = 0
KCO2 241410Z 12002KT 15/13 A3007 RMK A01 T01470133  RH  092%=      5-min Rain = 0
KCO2 241411Z 12001KT 15/13 A3007 RMK A01 T01470134  RH  092%=      5-min Rain = 0
KCO2 241412Z 11002KT 15/14 A3007 RMK A01 T01490135  RH  091%=      5-min Rain = 0
KCO2 241413Z 13002KT 15/14 A3007 RMK A01 T01490135  RH  091%=      5-min Rain = 0
KCO2 241414Z 14002KT 15/14 A3007 RMK A01 T01500135  RH  091%=      5-min Rain = 0
KCO2 241415Z 14002KT 15/14 A3007 RMK A01 T01510135  RH  090%=      5-min Rain = 0
KCO2 241416Z 15003KT 15/14 A3007 RMK A01 T01520136  RH  090%=      5-min Rain = 0
KCO2 241417Z 15003KT 15/14 A3007 RMK A01 T01520136  RH  090%=      5-min Rain = 0
KCO2 241418Z 16003KT 15/14 A3007 RMK A01 T01530136  RH  089%=      5-min Rain = 0
KCO2 241419Z 16004KT 15/14 A3007 RMK A01 T01540136  RH  089%=      5-min Rain = 0
KCO2 241420Z 16004KT 15/14 A3007 RMK A01 T01540136  RH  089%=      5-min Rain = 0
KCO2 241421Z 16004KT 16/14 A3007 RMK A01 T01550136  RH  089%=      5-min Rain = 0
KCO2 241422Z 15004KT 16/14 A3007 RMK A01 T01550136  RH  088%=      5-min Rain = 0
KCO2 241423Z 17005KT 16/14 A3007 RMK A01 T01560137  RH  088%=      5-min Rain = 0
KCO2 241424Z 16005KT 16/14 A3007 RMK A01 T01560137  RH  088%=      5-min Rain = 0
KCO2 241425Z 16004KT 16/14 A3007 RMK A01 T01570136  RH  088%=      5-min Rain = 0
KCO2 241426Z 16004KT 16/14 A3007 RMK A01 T01570136  RH  087%=      5-min Rain = 0
KCO2 241427Z 16004KT 16/14 A3007 RMK A01 T01570136  RH  087%=      5-min Rain = 0
KCO2 241428Z 16005KT 16/14 A3007 RMK A01 T01580137  RH  087%=      5-min Rain = 0
KCO2 241429Z 17005KT 16/14 A3007 RMK A01 T01580136  RH  087%=      5-min Rain = 0
KCO2 241430Z 17004KT 16/14 A3007 RMK A01 T01590136  RH  086%=      5-min Rain = 0
KCO2 241431Z 16006KT 16/14 A3007 RMK A01 T01590137  RH  087%=      5-min Rain = 0
KCO2 241432Z 16006KT 16/14 A3007 RMK A01 T01590137  RH  086%=      5-min Rain = 0
KCO2 241433Z 16005KT 16/14 A3007 RMK A01 T01600137  RH  086%=      5-min Rain = 0
KCO2 241434Z 17005KT 16/14 A3007 RMK A01 T01610137  RH  086%=      5-min Rain = 0
KCO2 241435Z 17004KT 16/14 A3007 RMK A01 T01620139  RH  086%=      5-min Rain = 0
KCO2 241436Z 16004KT 16/14 A3007 RMK A01 T01640140  RH  085%=      5-min Rain = 0
KCO2 241437Z 18003KT 17/14 A3007 RMK A01 T01660138  RH  084%=      5-min Rain = 0
KCO2 241438Z 17005KT 17/14 A3007 RMK A01 T01660139  RH  084%=      5-min Rain = 0
KCO2 241439Z 17005KT 17/14 A3007 RMK A01 T01660138  RH  083%=      5-min Rain = 0
KCO2 241440Z 18005KT 17/14 A3007 RMK A01 T01660138  RH  083%=      5-min Rain = 0
KCO2 241441Z 19005KT 17/14 A3007 RMK A01 T01650137  RH  083%=      5-min Rain = 0
KCO2 241442Z 18005KT 17/14 A3007 RMK A01 T01650137  RH  084%=      5-min Rain = 0
KCO2 241443Z 18005KT 17/14 A3008 RMK A01 T01650137  RH  084%=      5-min Rain = 0
KCO2 241444Z 17005KT 17/14 A3008 RMK A01 T01650137  RH  084%=      5-min Rain = 0
KCO2 241445Z 18004KT 16/14 A3008 RMK A01 T01640136  RH  084%=      5-min Rain = 0
KCO2 241446Z 18004KT 16/14 A3008 RMK A01 T01640137  RH  084%=      5-min Rain = 0
KCO2 241447Z 18004KT 17/14 A3008 RMK A01 T01650137  RH  083%=      5-min Rain = 0
KCO2 241448Z 18005KT 17/14 A3008 RMK A01 T01650137  RH  083%=      5-min Rain = 0
KCO2 241449Z 18004KT 17/14 A3008 RMK A01 T01660137  RH  083%=      5-min Rain = 0
KCO2 241450Z 17003KT 17/14 A3008 RMK A01 T01660137  RH  083%=      5-min Rain = 0
KCO2 241451Z 20003KT 17/14 A3008 RMK A01 T01670137  RH  082%=      5-min Rain = 0
KCO2 241452Z 21002KT 17/14 A3008 RMK A01 T01680137  RH  082%=      5-min Rain = 0
KCO2 241453Z 19003KT 17/14 A3008 RMK A01 T01680138  RH  082%=      5-min Rain = 0
KCO2 241454Z 18004KT 17/14 A3008 RMK A01 T01700139  RH  082%=      5-min Rain = 0
KCO2 241455Z 18003KT 17/14 A3008 RMK A01 T01710139  RH  081%=      5-min Rain = 0
KCO2 241456Z 17002KT 17/14 A3008 RMK A01 T01720138  RH  081%=      5-min Rain = 0
KCO2 241457Z 21002KT 17/14 A3008 RMK A01 T01720139  RH  081%=      5-min Rain = 0
KCO2 241458Z 19002KT 17/14 A3008 RMK A01 T01720139  RH  081%=      5-min Rain = 0
KCO2 241459Z 20003KT 17/14 A3008 RMK A01 T01720140  RH  081%=      5-min Rain = 0
KCO2 241500Z 21003KT 17/14 A3008 RMK A01 T01740140  RH  081%=      5-min Rain = 0
KCO2 241501Z 19004KT 17/14 A3008 RMK A01 T01740140  RH  080%=      5-min Rain = 0
KCO2 241502Z 21005KT 17/14 A3008 RMK A01 T01740140  RH  081%=      5-min Rain = 0
KCO2 241503Z 20005KT 17/14 A3008 RMK A01 T01740140  RH  080%=      5-min Rain = 0
KCO2 241504Z 19005KT 17/14 A3008 RMK A01 T01740141  RH  081%=      5-min Rain = 0
KCO2 241505Z 20005KT 18/14 A3008 RMK A01 T01750141  RH  080%=      5-min Rain = 0
KCO2 241506Z 22005KT 18/14 A3008 RMK A01 T01750141  RH  080%=      5-min Rain = 0
KCO2 241507Z 23005KT 18/14 A3008 RMK A01 T01750140  RH  080%=      5-min Rain = 0
KCO2 241508Z 23006KT 17/14 A3008 RMK A01 T01740141  RH  081%=      5-min Rain = 0
KCO2 241509Z 20006KT 17/14 A3008 RMK A01 T01740141  RH  081%=      5-min Rain = 0
KCO2 241510Z 21006KT 17/14 A3008 RMK A01 T01740140  RH  081%=      5-min Rain = 0
KCO2 241511Z 21006KT 17/14 A3008 RMK A01 T01740141  RH  081%=      5-min Rain = 0
KCO2 241512Z 22005KT 18/14 A3008 RMK A01 T01750141  RH  081%=      5-min Rain = 0
KCO2 241513Z 23005KT 18/14 A3008 RMK A01 T01750141  RH  080%=      5-min Rain = 0
KCO2 241514Z 24006KT 18/14 A3008 RMK A01 T01750141  RH  081%=      5-min Rain = 0
KCO2 241515Z 23006KT 18/14 A3008 RMK A01 T01750141  RH  080%=      5-min Rain = 0
KCO2 241516Z 23005KT 18/14 A3009 RMK A01 T01750141  RH  080%=      5-min Rain = 0
KCO2 241517Z 24005KT 18/14 A3009 RMK A01 T01750141  RH  080%=      5-min Rain = 0
KCO2 241518Z 22004KT 18/14 A3009 RMK A01 T01750141  RH  081%=      5-min Rain = 0
KCO2 241519Z 23006KT 18/14 A3009 RMK A01 T01750142  RH  081%=      5-min Rain = 0
KCO2 241520Z 24005KT 18/14 A3009 RMK A01 T01760142  RH  081%=      5-min Rain = 0
KCO2 241521Z 24005KT 18/14 A3009 RMK A01 T01760141  RH  080%=      5-min Rain = 0
KCO2 241522Z 23005KT 18/14 A3009 RMK A01 T01750141  RH  080%=      5-min Rain = 0
KCO2 241523Z 23006KT 18/14 A3009 RMK A01 T01760142  RH  080%=      5-min Rain = 0
KCO2 241524Z 22006KT 18/14 A3009 RMK A01 T01760140  RH  080%=      5-min Rain = 0
KCO2 241525Z 23007KT 18/14 A3009 RMK A01 T01760141  RH  080%=      5-min Rain = 0
KCO2 241526Z 25007KT 18/14 A3009 RMK A01 T01750140  RH  079%=      5-min Rain = 0
KCO2 241527Z 25006KT 18/14 A3009 RMK A01 T01750140  RH  080%=      5-min Rain = 0
KCO2 241528Z 25007KT 18/14 A3009 RMK A01 T01750139  RH  080%=      5-min Rain = 0
KCO2 241529Z 25009KT 18/14 A3009 RMK A01 T01750140  RH  080%=      5-min Rain = 0
KCO2 241530Z 24007KT 18/14 A3009 RMK A01 T01750140  RH  080%=      5-min Rain = 0
KCO2 241531Z 23007KT 18/14 A3009 RMK A01 T01760141  RH  080%=      5-min Rain = 0
KCO2 241532Z 23008KT 18/14 A3009 RMK A01 T01770141  RH  079%=      5-min Rain = 0
KCO2 241533Z 23006KT 18/14 A3009 RMK A01 T01780141  RH  079%=      5-min Rain = 0
KCO2 241534Z 23007KT 18/14 A3009 RMK A01 T01780141  RH  079%=      5-min Rain = 0
KCO2 241535Z 24005KT 18/14 A3009 RMK A01 T01780140  RH  079%=      5-min Rain = 0
KCO2 241536Z 24005KT 18/14 A3009 RMK A01 T01780141  RH  079%=      5-min Rain = 0
KCO2 241537Z 24004KT 18/14 A3009 RMK A01 T01790142  RH  079%=      5-min Rain = 0
KCO2 241538Z 22006KT 18/14 A3009 RMK A01 T01800141  RH  078%=      5-min Rain = 0
KCO2 241539Z 22005KT 18/14 A3009 RMK A01 T01800141  RH  078%=      5-min Rain = 0
KCO2 241540Z 24005KT 18/14 A3009 RMK A01 T01800141  RH  078%=      5-min Rain = 0
KCO2 241541Z 24004KT 18/14 A3009 RMK A01 T01790141  RH  078%=      5-min Rain = 0
KCO2 241542Z 27004KT 18/14 A3009 RMK A01 T01790141  RH  078%=      5-min Rain = 0
KCO2 241543Z 27004KT 18/14 A3009 RMK A01 T01800141  RH  078%=      5-min Rain = 0
KCO2 241544Z 29005KT 18/14 A3009 RMK A01 T01810140  RH  077%=      5-min Rain = 0
KCO2 241545Z 29006KT 18/14 A3009 RMK A01 T01800140  RH  077%=      5-min Rain = 0
KCO2 241546Z 28006KT 18/14 A3009 RMK A01 T01800140  RH  078%=      5-min Rain = 0
KCO2 241547Z 29004KT 18/14 A3009 RMK A01 T01800140  RH  077%=      5-min Rain = 0
KCO2 241548Z 27004KT 18/14 A3009 RMK A01 T01810142  RH  078%=      5-min Rain = 0
KCO2 241549Z 24005KT 18/14 A3009 RMK A01 T01830142  RH  077%=      5-min Rain = 0
KCO2 241550Z 27005KT 18/14 A3009 RMK A01 T01830141  RH  076%=      5-min Rain = 0
KCO2 241551Z 28004KT 18/14 A3009 RMK A01 T01810140  RH  077%=      5-min Rain = 0
KCO2 241552Z 29004KT 18/14 A3009 RMK A01 T01810141  RH  078%=      5-min Rain = 0
KCO2 241553Z 29005KT 18/14 A3009 RMK A01 T01820142  RH  077%=      5-min Rain = 0
KCO2 241554Z 25005KT 18/14 A3009 RMK A01 T01840142  RH  077%=      5-min Rain = 0
KCO2 241555Z 27004KT 19/14 A3009 RMK A01 T01850141  RH  076%=      5-min Rain = 0
KCO2 241556Z 28007KT 19/14 A3009 RMK A01 T01860143  RH  076%=      5-min Rain = 0
KCO2 241557Z 28005KT 19/14 A3009 RMK A01 T01870142  RH  075%=      5-min Rain = 0
KCO2 241558Z 28006KT 19/14 A3009 RMK A01 T01860141  RH  075%=      5-min Rain = 0
KCO2 241559Z 25004KT 19/14 A3009 RMK A01 T01860141  RH  075%=      5-min Rain = 0
KCO2 241600Z 25005KT 19/14 A3009 RMK A01 T01870142  RH  075%=      5-min Rain = 0
KCO2 241601Z 23004KT 19/14 A3009 RMK A01 T01870142  RH  075%=      5-min Rain = 0
KCO2 241602Z 24003KT 19/14 A3009 RMK A01 T01880143  RH  075%=      5-min Rain = 0
KCO2 241603Z 28005KT 19/14 A3009 RMK A01 T01890143  RH  074%=      5-min Rain = 0
KCO2 241604Z 29008KT 19/14 A3009 RMK A01 T01910144  RH  074%=      5-min Rain = 0
KCO2 241605Z 29007KT 19/14 A3009 RMK A01 T01920143  RH  073%=      5-min Rain = 0
KCO2 241606Z 28007KT 19/14 A3009 RMK A01 T01910143  RH  073%=      5-min Rain = 0
KCO2 241607Z 29005KT 19/14 A3009 RMK A01 T01910141  RH  073%=      5-min Rain = 0
KCO2 241608Z 29005KT 19/14 A3009 RMK A01 T01890141  RH  073%=      5-min Rain = 0
KCO2 241609Z 30004KT 19/14 A3009 RMK A01 T01880141  RH  074%=      5-min Rain = 0
KCO2 241610Z 27006KT 19/14 A3009 RMK A01 T01880141  RH  074%=      5-min Rain = 0
KCO2 241611Z 26005KT 19/14 A3009 RMK A01 T01900143  RH  074%=      5-min Rain = 0
KCO2 241612Z 25003KT 19/14 A3009 RMK A01 T01910142  RH  073%=      5-min Rain = 0
KCO2 241613Z 25003KT 19/14 A3009 RMK A01 T01910143  RH  074%=      5-min Rain = 0
KCO2 241614Z 27006KT 19/14 A3009 RMK A01 T01930144  RH  073%=      5-min Rain = 0
KCO2 241615Z 27006KT 19/14 A3009 RMK A01 T01940142  RH  072%=      5-min Rain = 0
KCO2 241616Z 27005KT 19/14 A3009 RMK A01 T01930142  RH  072%=      5-min Rain = 0
KCO2 241617Z 23003KT 19/14 A3009 RMK A01 T01930142  RH  072%=      5-min Rain = 0
KCO2 241618Z 25006KT 19/14 A3009 RMK A01 T01930143  RH  073%=      5-min Rain = 0
KCO2 241619Z 24006KT 19/14 A3009 RMK A01 T01940143  RH  072%=      5-min Rain = 0
KCO2 241620Z 26006KT 20/14 A3009 RMK A01 T01950142  RH  071%=      5-min Rain = 0
KCO2 241621Z 27005KT 20/14 A3009 RMK A01 T01960142  RH  071%=      5-min Rain = 0
KCO2 241622Z 28005KT 19/14 A3009 RMK A01 T01940141  RH  071%=      5-min Rain = 0
KCO2 241623Z 27003KT 19/14 A3009 RMK A01 T01930142  RH  072%=      5-min Rain = 0
KCO2 241624Z 24003KT 19/14 A3009 RMK A01 T01940142  RH  072%=      5-min Rain = 0
KCO2 241625Z 24002G7KT 20/14 A3009 RMK A01 T01970144  RH  072%=      5-min Rain = 0
KCO2 241626Z 27007KT 20/14 A3009 RMK A01 T01980143  RH  071%=      5-min Rain = 0
KCO2 241627Z 28007KT 20/14 A3009 RMK A01 T01980143  RH  070%=      5-min Rain = 0
KCO2 241628Z 29006KT 20/14 A3009 RMK A01 T02000143  RH  070%=      5-min Rain = 0
KCO2 241629Z 26003KT 20/14 A3009 RMK A01 T01980141  RH  070%=      5-min Rain = 0
KCO2 241630Z 28003KT 20/14 A3009 RMK A01 T01960141  RH  070%=      5-min Rain = 0
KCO2 241631Z 25004KT 20/14 A3009 RMK A01 T01970142  RH  071%=      5-min Rain = 0
KCO2 241632Z 23005KT 20/14 A3009 RMK A01 T01970141  RH  070%=      5-min Rain = 0
KCO2 241633Z 28006KT 20/14 A3009 RMK A01 T01990142  RH  070%=      5-min Rain = 0
KCO2 241634Z 28005KT 20/14 A3009 RMK A01 T01990142  RH  070%=      5-min Rain = 0
KCO2 241635Z 28007KT 20/14 A3009 RMK A01 T01990142  RH  070%=      5-min Rain = 0
KCO2 241636Z 28006KT 20/14 A3009 RMK A01 T02000142  RH  069%=      5-min Rain = 0
KCO2 241637Z 31004KT 20/14 A3009 RMK A01 T01990141  RH  069%=      5-min Rain = 0
KCO2 241638Z 30005KT 20/14 A3009 RMK A01 T01990141  RH  069%=      5-min Rain = 0
KCO2 241639Z 26004KT 20/14 A3009 RMK A01 T01990143  RH  070%=      5-min Rain = 0
KCO2 241640Z 28007KT 20/14 A3009 RMK A01 T02030143  RH  069%=      5-min Rain = 0
KCO2 241641Z 29007KT 21/14 A3009 RMK A01 T02050142  RH  067%=      5-min Rain = 0
KCO2 241642Z 28007KT 20/14 A3009 RMK A01 T02040142  RH  067%=      5-min Rain = 0
KCO2 241643Z 28006KT 20/14 A3009 RMK A01 T02040142  RH  067%=      5-min Rain = 0
KCO2 241644Z 24007KT 21/14 A3009 RMK A01 T02050142  RH  067%=      5-min Rain = 0
KCO2 241645Z 23006KT 21/14 A3009 RMK A01 T02050142  RH  067%=      5-min Rain = 0
KCO2 241646Z 22005KT 21/14 A3009 RMK A01 T02080142  RH  066%=      5-min Rain = 0
KCO2 241647Z 26004KT 21/14 A3009 RMK A01 T02080142  RH  066%=      5-min Rain = 0
KCO2 241648Z 24005KT 21/14 A3009 RMK A01 T02070143  RH  067%=      5-min Rain = 0
KCO2 241649Z 24007KT 21/14 A3009 RMK A01 T02090143  RH  066%=      5-min Rain = 0
KCO2 241650Z 23006KT 21/14 A3009 RMK A01 T02080141  RH  065%=      5-min Rain = 0
KCO2 241651Z 25005G10KT 21/14 A3009 RMK A01 T02070142  RH  066%=      5-min Rain = 0
KCO2 241652Z 26006KT 21/14 A3009 RMK A01 T02070141  RH  066%=      5-min Rain = 0
KCO2 241653Z 26008KT 21/14 A3009 RMK A01 T02110143  RH  065%=      5-min Rain = 0
KCO2 241654Z 24008KT 21/14 A3009 RMK A01 T02130142  RH  064%=      5-min Rain = 0
KCO2 241655Z 23007KT 22/14 A3009 RMK A01 T02150142  RH  063%=      5-min Rain = 0
KCO2 241656Z 21006KT 22/14 A3009 RMK A01 T02150141  RH  063%=      5-min Rain = 0
KCO2 241657Z 23006KT 21/14 A3009 RMK A01 T02140142  RH  063%=      5-min Rain = 0
KCO2 241658Z 25007KT 21/14 A3009 RMK A01 T02140143  RH  064%=      5-min Rain = 0
KCO2 241659Z 28007KT 22/14 A3009 RMK A01 T02150143  RH  064%=      5-min Rain = 0
KCO2 241700Z 27006KT 22/14 A3009 RMK A01 T02160142  RH  063%=      5-min Rain = 0
KCO2 241701Z 26007KT 22/14 A3009 RMK A01 T02150143  RH  063%=      5-min Rain = 0
KCO2 241702Z 26008KT 22/14 A3009 RMK A01 T02170143  RH  063%=      5-min Rain = 0
KCO2 241703Z 27007KT 22/14 A3008 RMK A01 T02170142  RH  062%=      5-min Rain = 0
KCO2 241704Z 25006KT 22/14 A3009 RMK A01 T02180143  RH  062%=      5-min Rain = 0
KCO2 241705Z 26006KT 22/14 A3009 RMK A01 T02200142  RH  061%=      5-min Rain = 0
KCO2 241706Z 26008KT 22/14 A3009 RMK A01 T02190142  RH  061%=      5-min Rain = 0
KCO2 241707Z 24007KT 22/14 A3009 RMK A01 T02180141  RH  062%=      5-min Rain = 0
KCO2 241708Z 26006KT 22/14 A3008 RMK A01 T02190141  RH  061%=      5-min Rain = 0
KCO2 241709Z 24005KT 22/14 A3008 RMK A01 T02180141  RH  062%=      5-min Rain = 0
KCO2 241710Z 26005KT 22/14 A3008 RMK A01 T02170141  RH  062%=      5-min Rain = 0
KCO2 241711Z 25007G12KT 22/14 A3008 RMK A01 T02190142  RH  062%=      5-min Rain = 0
KCO2 241712Z 24008KT 22/14 A3008 RMK A01 T02240144  RH  060%=      5-min Rain = 0
KCO2 241713Z 25009KT 23/14 A3008 RMK A01 T02260140  RH  058%=      5-min Rain = 0
KCO2 241714Z 25008KT 23/14 A3008 RMK A01 T02260140  RH  058%=      5-min Rain = 0
KCO2 241715Z 25007KT 23/14 A3008 RMK A01 T02280141  RH  058%=      5-min Rain = 0
KCO2 241716Z 20007KT 23/14 A3008 RMK A01 T02290142  RH  058%=      5-min Rain = 0
KCO2 241717Z 21007KT 23/14 A3008 RMK A01 T02310142  RH  057%=      5-min Rain = 0
KCO2 241718Z 23006KT 23/14 A3008 RMK A01 T02300136  RH  055%=      5-min Rain = 0
KCO2 241719Z 23006KT 23/14 A3008 RMK A01 T02280138  RH  057%=      5-min Rain = 0
KCO2 241720Z 21003KT 23/14 A3008 RMK A01 T02280139  RH  057%=      5-min Rain = 0
KCO2 241721Z 23007KT 23/14 A3008 RMK A01 T02280140  RH  057%=      5-min Rain = 0
KCO2 241722Z 24007KT 23/14 A3008 RMK A01 T02340139  RH  055%=      5-min Rain = 0
KCO2 241723Z 26007KT 24/14 A3008 RMK A01 T02380138  RH  053%=      5-min Rain = 0
KCO2 241724Z 24008G13KT 24/13 A3008 RMK A01 T02370133  RH  052%=      5-min Rain = 0
KCO2 241725Z 23009KT 24/13 A3008 RMK A01 T02350129  RH  051%=      5-min Rain = 0
KCO2 241726Z 23007KT 23/13 A3008 RMK A01 T02340126  RH  051%=      5-min Rain = 0
KCO2 241727Z 23007KT 23/12 A3008 RMK A01 T02330124  RH  050%=      5-min Rain = 0
KCO2 241728Z 23008KT 23/13 A3008 RMK A01 T02320129  RH  052%=      5-min Rain = 0
KCO2 241729Z 24008KT 23/13 A3008 RMK A01 T02340129  RH  052%=      5-min Rain = 0
KCO2 241730Z 24009KT 23/12 A3008 RMK A01 T02330122  RH  050%=      5-min Rain = 0
KCO2 241731Z 21005KT 23/13 A3008 RMK A01 T02320128  RH  052%=      5-min Rain = 0
KCO2 241732Z 23008KT 23/13 A3008 RMK A01 T02300127  RH  052%=      5-min Rain = 0
KCO2 241733Z 24006KT 23/12 A3008 RMK A01 T02310122  RH  050%=      5-min Rain = 0
KCO2 241734Z 23010KT 23/12 A3007 RMK A01 T02340123  RH  049%=      5-min Rain = 0
KCO2 241735Z 23009KT 24/12 A3007 RMK A01 T02350121  RH  049%=      5-min Rain = 0
KCO2 241736Z 23009KT 24/12 A3007 RMK A01 T02360121  RH  048%=      5-min Rain = 0
KCO2 241737Z 21010KT 24/12 A3007 RMK A01 T02380121  RH  048%=      5-min Rain = 0
KCO2 241738Z 20011KT 24/12 A3007 RMK A01 T02410118  RH  046%=      5-min Rain = 0
KCO2 241739Z 21010KT 24/12 A3007 RMK A01 T02430120  RH  046%=      5-min Rain = 0
KCO2 241740Z 21010KT 24/12 A3007 RMK A01 T02440119  RH  045%=      5-min Rain = 0
KCO2 241741Z 20010KT 24/12 A3007 RMK A01 T02430119  RH  046%=      5-min Rain = 0
KCO2 241742Z 20009KT 24/12 A3007 RMK A01 T02400119  RH  046%=      5-min Rain = 0
KCO2 241743Z 20006KT 24/12 A3007 RMK A01 T02380120  RH  047%=      5-min Rain = 0
KCO2 241744Z 22005KT 24/12 A3007 RMK A01 T02360123  RH  049%=      5-min Rain = 0
KCO2 241745Z 26002KT 24/13 A3007 RMK A01 T02360125  RH  050%=      5-min Rain = 0
KCO2 241746Z 27003KT 24/13 A3007 RMK A01 T02360126  RH  050%=      5-min Rain = 0
KCO2 241747Z 22006KT 24/13 A3007 RMK A01 T02390127  RH  049%=      5-min Rain = 0
KCO2 241748Z 24009KT 24/13 A3007 RMK A01 T02440128  RH  048%=      5-min Rain = 0
KCO2 241749Z 23009KT 25/12 A3007 RMK A01 T02470123  RH  046%=      5-min Rain = 0
KCO2 241750Z 23008G14KT 25/12 A3007 RMK A01 T02460122  RH  046%=      5-min Rain = 0
KCO2 241751Z 22009KT 25/12 A3007 RMK A01 T02460118  RH  045%=      5-min Rain = 0
KCO2 241752Z 22009KT 25/12 A3007 RMK A01 T02470116  RH  044%=      5-min Rain = 0
KCO2 241753Z 21008KT 25/11 A3007 RMK A01 T02490114  RH  043%=      5-min Rain = 0
KCO2 241754Z 20008KT 25/11 A3007 RMK A01 T02490113  RH  042%=      5-min Rain = 0
KCO2 241755Z 21008KT 25/12 A3007 RMK A01 T02480117  RH  044%=      5-min Rain = 0
KCO2 241756Z 23008KT 25/12 A3007 RMK A01 T02480116  RH  044%=      5-min Rain = 0
KCO2 241757Z 24010KT 25/12 A3007 RMK A01 T02480116  RH  044%=      5-min Rain = 0
KCO2 241758Z 25009KT 25/11 A3007 RMK A01 T02480110  RH  042%=      5-min Rain = 0
KCO2 241759Z 24011KT 25/11 A3007 RMK A01 T02500111  RH  042%=      5-min Rain = 0
KCO2 241800Z 23009KT 25/11 A3007 RMK A01 T02510112  RH  042%=      5-min Rain = 0
KCO2 241801Z 22005KT 25/11 A3006 RMK A01 T02470108  RH  042%=      5-min Rain = 0
KCO2 241802Z 22005KT 24/11 A3006 RMK A01 T02440111  RH  043%=      5-min Rain = 0
KCO2 241803Z 22007KT 25/11 A3006 RMK A01 T02450113  RH  044%=      5-min Rain = 0
KCO2 241804Z 23013KT 25/10 A3006 RMK A01 T02510101  RH  039%=      5-min Rain = 0
KCO2 241805Z 24014KT 26/09 A3006 RMK A01 T02550089  RH  035%=      5-min Rain = 0
KCO2 241806Z 24011KT 25/09 A3006 RMK A01 T02540089  RH  035%=      5-min Rain = 0
KCO2 241807Z 25009KT 25/09 A3006 RMK A01 T02530090  RH  036%=      5-min Rain = 0
KCO2 241808Z 25009KT 25/09 A3006 RMK A01 T02530090  RH  036%=      5-min Rain = 0
KCO2 241809Z 23010KT 25/10 A3006 RMK A01 T02520095  RH  037%=      5-min Rain = 0
KCO2 241810Z 25012KT 25/10 A3006 RMK A01 T02520097  RH  037%=      5-min Rain = 0
KCO2 241811Z 24012KT 25/10 A3006 RMK A01 T02530099  RH  038%=      5-min Rain = 0
KCO2 241812Z 25010KT 26/10 A3006 RMK A01 T02550100  RH  038%=      5-min Rain = 0
KCO2 241813Z 26010KT 26/10 A3006 RMK A01 T02560100  RH  037%=      5-min Rain = 0
KCO2 241814Z 24009KT 26/10 A3006 RMK A01 T02570101  RH  037%=      5-min Rain = 0
KCO2 241815Z 24007KT 26/11 A3006 RMK A01 T02570106  RH  039%=      5-min Rain = 0
KCO2 241816Z 21011KT 26/11 A3006 RMK A01 T02570108  RH  039%=      5-min Rain = 0
KCO2 241817Z 23010KT 26/11 A3006 RMK A01 T02550108  RH  039%=      5-min Rain = 0
KCO2 241818Z 23009KT 25/11 A3006 RMK A01 T02540105  RH  039%=      5-min Rain = 0
KCO2 241819Z 23009KT 25/11 A3006 RMK A01 T02540107  RH  040%=      5-min Rain = 0
KCO2 241820Z 22006KT 26/10 A3006 RMK A01 T02550102  RH  038%=      5-min Rain = 0
KCO2 241821Z 21009KT 25/09 A3006 RMK A01 T02540091  RH  036%=      5-min Rain = 0
KCO2 241822Z 21010KT 26/09 A3006 RMK A01 T02590091  RH  035%=      5-min Rain = 0
KCO2 241823Z 20010KT 26/10 A3006 RMK A01 T02630097  RH  035%=      5-min Rain = 0
KCO2 241824Z 20008KT 26/10 A3006 RMK A01 T02600095  RH  035%=      5-min Rain = 0
KCO2 241825Z 20009KT 26/10 A3006 RMK A01 T02600098  RH  036%=      5-min Rain = 0
KCO2 241826Z 20005KT 26/10 A3006 RMK A01 T02590098  RH  036%=      5-min Rain = 0
KCO2 241827Z 22011KT 26/10 A3006 RMK A01 T02590101  RH  037%=      5-min Rain = 0
KCO2 241828Z 23010KT 26/10 A3005 RMK A01 T02600096  RH  036%=      5-min Rain = 0
KCO2 241829Z 23009KT 26/09 A3005 RMK A01 T02580090  RH  034%=      5-min Rain = 0
KCO2 241830Z 23013KT 26/09 A3006 RMK A01 T02570086  RH  034%=      5-min Rain = 0
KCO2 241831Z 24011KT 26/09 A3006 RMK A01 T02580090  RH  035%=      5-min Rain = 0
KCO2 241832Z 24009KT 26/09 A3006 RMK A01 T02580092  RH  035%=      5-min Rain = 0
KCO2 241833Z 22006KT 26/09 A3005 RMK A01 T02560094  RH  036%=      5-min Rain = 0
KCO2 241834Z 23007KT 26/10 A3005 RMK A01 T02580096  RH  036%=      5-min Rain = 0
KCO2 241835Z 20008KT 26/09 A3005 RMK A01 T02590090  RH  034%=      5-min Rain = 0
KCO2 241836Z 22009KT 26/09 A3005 RMK A01 T02610085  RH  033%=      5-min Rain = 0
KCO2 241837Z 23012KT 27/08 A3005 RMK A01 T02650082  RH  031%=      5-min Rain = 0
KCO2 241838Z 24011KT 27/09 A3005 RMK A01 T02670086  RH  032%=      5-min Rain = 0
KCO2 241839Z 24008KT 27/09 A3005 RMK A01 T02670085  RH  032%=      5-min Rain = 0
KCO2 241840Z 23008KT 27/08 A3005 RMK A01 T02660082  RH  031%=      5-min Rain = 0
KCO2 241841Z 21008KT 26/07 A3005 RMK A01 T02620073  RH  030%=      5-min Rain = 0
KCO2 241842Z 22007KT 26/07 A3005 RMK A01 T02620073  RH  030%=      5-min Rain = 0
KCO2 241843Z 23006KT 26/08 A3005 RMK A01 T02620079  RH  031%=      5-min Rain = 0
KCO2 241844Z 23013G21KT 26/08 A3005 RMK A01 T02600082  RH  032%=      5-min Rain = 0
KCO2 241845Z 23012KT 26/09 A3005 RMK A01 T02640087  RH  033%=      5-min Rain = 0
KCO2 241846Z 22009KT 27/08 A3005 RMK A01 T02650084  RH  032%=      5-min Rain = 0
KCO2 241847Z 24009KT 26/08 A3005 RMK A01 T02620084  RH  032%=      5-min Rain = 0
KCO2 241848Z 23006KT 26/07 A3005 RMK A01 T02600074  RH  031%=      5-min Rain = 0
KCO2 241849Z 23008G13KT 26/07 A3005 RMK A01 T02610073  RH  030%=      5-min Rain = 0
KCO2 241850Z 23009KT 27/07 A3005 RMK A01 T02670068  RH  028%=      5-min Rain = 0
KCO2 241851Z 22009KT 27/06 A3005 RMK A01 T02700062  RH  027%=      5-min Rain = 0
KCO2 241852Z 23012KT 27/06 A3005 RMK A01 T02700063  RH  027%=      5-min Rain = 0
KCO2 241853Z 24009KT 27/06 A3005 RMK A01 T02690063  RH  027%=      5-min Rain = 0
KCO2 241854Z 24009G14KT 27/07 A3005 RMK A01 T02660066  RH  028%=      5-min Rain = 0
KCO2 241855Z 23009KT 27/07 A3005 RMK A01 T02670066  RH  028%=      5-min Rain = 0
KCO2 241856Z 23011KT 27/07 A3005 RMK A01 T02670069  RH  028%=      5-min Rain = 0
KCO2 241857Z 22012KT 27/07 A3005 RMK A01 T02650068  RH  028%=      5-min Rain = 0
KCO2 241858Z 21010KT 26/07 A3005 RMK A01 T02620069  RH  029%=      5-min Rain = 0
KCO2 241859Z 21009KT 26/07 A3005 RMK A01 T02620071  RH  030%=      5-min Rain = 0
KCO2 241900Z 21005KT 26/07 A3005 RMK A01 T02640072  RH  030%=      5-min Rain = 0
KCO2 241901Z 23006KT 26/08 A3005 RMK A01 T02630075  RH  030%=      5-min Rain = 0
KCO2 241902Z 25007KT 26/08 A3005 RMK A01 T02630077  RH  031%=      5-min Rain = 0
KCO2 241903Z 24012KT 27/08 A3005 RMK A01 T02650075  RH  030%=      5-min Rain = 0
KCO2 241904Z 24012KT 27/06 A3005 RMK A01 T02710062  RH  027%=      5-min Rain = 0
KCO2 241905Z 23010KT 27/06 A3005 RMK A01 T02700055  RH  025%=      5-min Rain = 0
KCO2 241906Z 23010KT 27/05 A3005 RMK A01 T02680054  RH  026%=      5-min Rain = 0
KCO2 241907Z 25011KT 27/06 A3005 RMK A01 T02650061  RH  027%=      5-min Rain = 0
KCO2 241908Z 23010KT 27/07 A3005 RMK A01 T02660066  RH  028%=      5-min Rain = 0
KCO2 241909Z 24009KT 27/06 A3005 RMK A01 T02680064  RH  027%=      5-min Rain = 0
KCO2 241910Z 25011KT 27/06 A3005 RMK A01 T02680064  RH  027%=      5-min Rain = 0
KCO2 241911Z 27008KT 27/06 A3005 RMK A01 T02690062  RH  027%=      5-min Rain = 0
KCO2 241912Z 28011KT 27/06 A3005 RMK A01 T02690058  RH  026%=      5-min Rain = 0
KCO2 241913Z 28010KT 27/05 A3005 RMK A01 T02650052  RH  026%=      5-min Rain = 0
KCO2 241914Z 27007KT 26/05 A3005 RMK A01 T02590052  RH  027%=      5-min Rain = 0
KCO2 241915Z 26007KT 26/06 A3004 RMK A01 T02580056  RH  027%=      5-min Rain = 0
KCO2 241916Z 27010KT 26/05 A3005 RMK A01 T02600052  RH  026%=      5-min Rain = 0
KCO2 241917Z 26012KT 26/05 A3005 RMK A01 T02620047  RH  025%=      5-min Rain = 0
KCO2 241918Z 27008KT 26/05 A3004 RMK A01 T02620047  RH  025%=      5-min Rain = 0
KCO2 241919Z 26006KT 26/05 A3004 RMK A01 T02610047  RH  025%=      5-min Rain = 0
KCO2 241920Z 25008KT 26/05 A3004 RMK A01 T02620047  RH  025%=      5-min Rain = 0
KCO2 241921Z 25006KT 26/04 A3004 RMK A01 T02590044  RH  025%=      5-min Rain = 0
KCO2 241922Z 26006KT 26/05 A3004 RMK A01 T02570046  RH  026%=      5-min Rain = 0
KCO2 241923Z 26006KT 26/05 A3004 RMK A01 T02570048  RH  026%=      5-min Rain = 0
KCO2 241924Z 26007KT 26/05 A3004 RMK A01 T02590050  RH  026%=      5-min Rain = 0
KCO2 241925Z 26008KT 26/05 A3004 RMK A01 T02610053  RH  026%=      5-min Rain = 0
KCO2 241926Z 25008KT 27/05 A3004 RMK A01 T02650054  RH  026%=      5-min Rain = 0
KCO2 241927Z 27011KT 27/05 A3004 RMK A01 T02670053  RH  025%=      5-min Rain = 0
KCO2 241928Z 28007KT 26/05 A3004 RMK A01 T02640051  RH  026%=      5-min Rain = 0
KCO2 241929Z 27006KT 26/05 A3004 RMK A01 T02600053  RH  026%=      5-min Rain = 0
KCO2 241930Z 28008KT 26/06 A3004 RMK A01 T02610058  RH  027%=      5-min Rain = 0
KCO2 241931Z 27011KT 26/06 A3003 RMK A01 T02630061  RH  027%=      5-min Rain = 0
KCO2 241932Z 26010KT 27/06 A3003 RMK A01 T02660061  RH  027%=      5-min Rain = 0
KCO2 241933Z 26007KT 27/06 A3003 RMK A01 T02680063  RH  027%=      5-min Rain = 0
KCO2 241934Z 25008KT 27/06 A3003 RMK A01 T02720062  RH  026%=      5-min Rain = 0
KCO2 241935Z 27009KT 27/06 A3003 RMK A01 T02700061  RH  026%=      5-min Rain = 0
KCO2 241936Z 27007KT 27/06 A3003 RMK A01 T02690063  RH  027%=      5-min Rain = 0
KCO2 241937Z 23008KT 27/06 A3003 RMK A01 T02690063  RH  027%=      5-min Rain = 0
KCO2 241938Z 24006KT 27/06 A3003 RMK A01 T02680064  RH  027%=      5-min Rain = 0
KCO2 241939Z 27009KT 27/07 A3003 RMK A01 T02700066  RH  027%=      5-min Rain = 0
KCO2 241940Z 28008KT 27/07 A3003 RMK A01 T02690066  RH  028%=      5-min Rain = 0
KCO2 241941Z 27010KT 27/07 A3003 RMK A01 T02710073  RH  029%=      5-min Rain = 0
KCO2 241942Z 27010KT 27/07 A3003 RMK A01 T02740072  RH  028%=      5-min Rain = 0
KCO2 241943Z 26011KT 27/07 A3003 RMK A01 T02740070  RH  028%=      5-min Rain = 0
KCO2 241944Z 24010KT 27/07 A3003 RMK A01 T02730072  RH  028%=      5-min Rain = 0
KCO2 241945Z 25009KT 27/07 A3003 RMK A01 T02720070  RH  028%=      5-min Rain = 0
KCO2 241946Z 25008KT 27/07 A3003 RMK A01 T02710073  RH  028%=      5-min Rain = 0
KCO2 241947Z 23010KT 27/07 A3002 RMK A01 T02740070  RH  027%=      5-min Rain = 0
KCO2 241948Z 23010KT 28/07 A3002 RMK A01 T02750070  RH  027%=      5-min Rain = 0
KCO2 241949Z 23004KT 27/07 A3002 RMK A01 T02730068  RH  027%=      5-min Rain = 0
KCO2 241950Z 27004KT 27/07 A3002 RMK A01 T02720068  RH  027%=      5-min Rain = 0
KCO2 241951Z 24008KT 27/07 A3002 RMK A01 T02720070  RH  028%=      5-min Rain = 0
KCO2 241952Z 22008KT 28/07 A3002 RMK A01 T02760070  RH  027%=      5-min Rain = 0
KCO2 241953Z 22007KT 28/07 A3002 RMK A01 T02760070  RH  027%=      5-min Rain = 0
KCO2 241954Z 22006KT 28/07 A3002 RMK A01 T02760069  RH  027%=      5-min Rain = 0
KCO2 241955Z 23009KT 27/07 A3002 RMK A01 T02740069  RH  027%=      5-min Rain = 0
KCO2 241956Z 25010KT 27/07 A3002 RMK A01 T02730065  RH  027%=      5-min Rain = 0
KCO2 241957Z 25007KT 27/06 A3002 RMK A01 T02680062  RH  027%=      5-min Rain = 0
KCO2 241958Z 25006KT 27/06 A3002 RMK A01 T02660056  RH  026%=      5-min Rain = 0
KCO2 241959Z 27010KT 27/05 A3002 RMK A01 T02660053  RH  026%=      5-min Rain = 0
KCO2 242000Z 28010KT 27/05 A3002 RMK A01 T02680049  RH  024%=      5-min Rain = 0
KCO2 242001Z 29009KT 27/05 A3002 RMK A01 T02700051  RH  025%=      5-min Rain = 0
KCO2 242002Z 28009KT 27/05 A3002 RMK A01 T02700050  RH  024%=      5-min Rain = 0
KCO2 242003Z 28007KT 27/05 A3002 RMK A01 T02700050  RH  024%=      5-min Rain = 0
KCO2 242004Z 27008KT 27/05 A3002 RMK A01 T02710050  RH  024%=      5-min Rain = 0
KCO2 242005Z 25010KT 27/05 A3002 RMK A01 T02710049  RH  024%=      5-min Rain = 0
KCO2 242006Z 25011KT 28/04 A3001 RMK A01 T02750043  RH  023%=      5-min Rain = 0
KCO2 242007Z 23009KT 28/04 A3001 RMK A01 T02750042  RH  022%=      5-min Rain = 0
KCO2 242008Z 24008KT 28/04 A3001 RMK A01 T02750042  RH  023%=      5-min Rain = 0
KCO2 242009Z 25013KT 28/04 A3001 RMK A01 T02760042  RH  022%=      5-min Rain = 0
KCO2 242010Z 25012KT 28/03 A3001 RMK A01 T02770029  RH  020%=      5-min Rain = 0
KCO2 242011Z 26013KT 28/03 A3001 RMK A01 T02760033  RH  021%=      5-min Rain = 0
KCO2 242012Z 26013KT 28/04 A3001 RMK A01 T02750038  RH  022%=      5-min Rain = 0
KCO2 242013Z 26009KT 28/04 A3001 RMK A01 T02750039  RH  022%=      5-min Rain = 0
KCO2 242014Z 24010KT 28/04 A3001 RMK A01 T02750040  RH  022%=      5-min Rain = 0
KCO2 242015Z 24010KT 28/04 A3001 RMK A01 T02770043  RH  022%=      5-min Rain = 0
KCO2 242016Z 25010KT 28/05 A3001 RMK A01 T02790049  RH  023%=      5-min Rain = 0
KCO2 242017Z 24008KT 28/05 A3001 RMK A01 T02790047  RH  023%=      5-min Rain = 0
KCO2 242018Z 23007KT 28/05 A3001 RMK A01 T02770049  RH  023%=      5-min Rain = 0
KCO2 242019Z 23005KT 28/05 A3001 RMK A01 T02780048  RH  023%=      5-min Rain = 0
KCO2 242020Z 27005KT 28/05 A3001 RMK A01 T02780050  RH  023%=      5-min Rain = 0
KCO2 242021Z 27005KT 28/05 A3001 RMK A01 T02800054  RH  024%=      5-min Rain = 0
KCO2 242022Z 27009KT 28/06 A3001 RMK A01 T02810055  RH  024%=      5-min Rain = 0
KCO2 242023Z 27011KT 28/05 A3001 RMK A01 T02820045  RH  022%=      5-min Rain = 0
KCO2 242024Z 27010KT 28/04 A3001 RMK A01 T02780038  RH  021%=      5-min Rain = 0
KCO2 242025Z 26013KT 28/04 A3001 RMK A01 T02780039  RH  022%=      5-min Rain = 0
KCO2 242026Z 27009KT 28/03 A3001 RMK A01 T02810034  RH  021%=      5-min Rain = 0
KCO2 242027Z 25008KT 28/03 A3001 RMK A01 T02780034  RH  021%=      5-min Rain = 0
KCO2 242028Z 28008KT 28/04 A3001 RMK A01 T02760037  RH  022%=      5-min Rain = 0
KCO2 242029Z 29010KT 28/03 A3001 RMK A01 T02780034  RH  021%=      5-min Rain = 0
KCO2 242030Z 28009KT 28/03 A3001 RMK A01 T02780033  RH  021%=      5-min Rain = 0
KCO2 242031Z 29009KT 28/03 A3001 RMK A01 T02780032  RH  021%=      5-min Rain = 0
KCO2 242032Z 29011KT 28/04 A3001 RMK A01 T02780042  RH  022%=      5-min Rain = 0
KCO2 242033Z 26010KT 28/04 A3001 RMK A01 T02790041  RH  022%=      5-min Rain = 0
KCO2 242034Z 28008KT 28/04 A3001 RMK A01 T02790043  RH  022%=      5-min Rain = 0
KCO2 242035Z 27006KT 28/04 A3001 RMK A01 T02800044  RH  022%=      5-min Rain = 0
KCO2 242036Z 26007KT 28/04 A3001 RMK A01 T02790043  RH  022%=      5-min Rain = 0
KCO2 242037Z 24010KT 28/04 A30 RMK A01 T02780043  RH  022%=      5-min Rain = 0
KCO2 242038Z 25008KT 28/04 A30 RMK A01 T02790042  RH  022%=      5-min Rain = 0
KCO2 242039Z 25007KT 28/04 A30 RMK A01 T02830044  RH  022%=      5-min Rain = 0
KCO2 242040Z 25007KT 28/04 A30 RMK A01 T02840043  RH  021%=      5-min Rain = 0
KCO2 242041Z 28011KT 29/05 A30 RMK A01 T02870048  RH  022%=      5-min Rain = 0
KCO2 242042Z 29011KT 29/05 A30 RMK A01 T02880046  RH  021%=      5-min Rain = 0
KCO2 242043Z 29012KT 29/04 A30 RMK A01 T02850044  RH  021%=      5-min Rain = 0
KCO2 242044Z 30009KT 28/04 A30 RMK A01 T02810042  RH  022%=      5-min Rain = 0
KCO2 242045Z 27010KT 28/04 A30 RMK A01 T02790044  RH  022%=      5-min Rain = 0
KCO2 242046Z 30009KT 28/05 A30 RMK A01 T02790045  RH  022%=      5-min Rain = 0
KCO2 242047Z 30011KT 28/05 A30 RMK A01 T02800045  RH  022%=      5-min Rain = 0
KCO2 242048Z 30009KT 28/04 A30 RMK A01 T02780040  RH  022%=      5-min Rain = 0
KCO2 242049Z 29008KT 28/04 A30 RMK A01 T02790042  RH  022%=      5-min Rain = 0
KCO2 242050Z 27006KT 28/04 A30 RMK A01 T02810043  RH  022%=      5-min Rain = 0
KCO2 242051Z 28006KT 28/04 A30 RMK A01 T02810044  RH  022%=      5-min Rain = 0
KCO2 242052Z 25007KT 28/05 A30 RMK A01 T02810045  RH  022%=      5-min Rain = 0
KCO2 242053Z 25008KT 28/03 A30 RMK A01 T02800033  RH  020%=      5-min Rain = 0
KCO2 242054Z 24012KT 28/03 A30 RMK A01 T02810026  RH  019%=      5-min Rain = 0
KCO2 242055Z 25014KT 28/02 A30 RMK A01 T02810023  RH  019%=      5-min Rain = 0
KCO2 242056Z 24011KT 28/02 A30 RMK A01 T02830024  RH  019%=      5-min Rain = 0
KCO2 242057Z 25011KT 29/02 A30 RMK A01 T02850018  RH  018%=      5-min Rain = 0
KCO2 242058Z 27010KT 28/03 A30 RMK A01 T02840025  RH  019%=      5-min Rain = 0
KCO2 242059Z 28011KT 29/03 A30 RMK A01 T02860030  RH  019%=      5-min Rain = 0
KCO2 242100Z 28008KT 29/03 A30 RMK A01 T02850032  RH  020%=      5-min Rain = 0
KCO2 242101Z 26007KT 29/03 A30 RMK A01 T02850033  RH  020%=      5-min Rain = 0
KCO2 242102Z 25010KT 29/04 A30 RMK A01 T02850037  RH  020%=      5-min Rain = 0
KCO2 242103Z 25008KT 29/04 A30 RMK A01 T02860035  RH  020%=      5-min Rain = 0
KCO2 242104Z 25007KT 28/03 A30 RMK A01 T02840032  RH  020%=      5-min Rain = 0
KCO2 242105Z 25006KT 28/03 A30 RMK A01 T02800032  RH  020%=      5-min Rain = 0
KCO2 242106Z 24004KT 28/03 A30 RMK A01 T02770034  RH  021%=      5-min Rain = 0
KCO2 242107Z 23004KT 28/04 A30 RMK A01 T02760037  RH  022%=      5-min Rain = 0
KCO2 242108Z 27004KT 28/04 A30 RMK A01 T02760037  RH  022%=      5-min Rain = 0
KCO2 242109Z 29005KT 28/04 A30 RMK A01 T02770036  RH  021%=      5-min Rain = 0
KCO2 242110Z 29007KT 28/03 A30 RMK A01 T02800026  RH  020%=      5-min Rain = 0
KCO2 242111Z 28009KT 28/02 A30 RMK A01 T02810019  RH  019%=      5-min Rain = 0
KCO2 242112Z 28011KT 29/03 A30 RMK A01 T02850028  RH  019%=      5-min Rain = 0
KCO2 242113Z 28011KT 29/03 A2999 RMK A01 T02860032  RH  020%=      5-min Rain = 0
KCO2 242114Z 28011KT 28/03 A2999 RMK A01 T02840033  RH  020%=      5-min Rain = 0
KCO2 242115Z 27012KT 29/03 A2999 RMK A01 T02850034  RH  020%=      5-min Rain = 0
KCO2 242116Z 28012KT 29/03 A2999 RMK A01 T02850034  RH  020%=      5-min Rain = 0
KCO2 242117Z 28011KT 29/03 A2999 RMK A01 T02850032  RH  020%=      5-min Rain = 0
KCO2 242118Z 29008KT 29/03 A2999 RMK A01 T02850031  RH  020%=      5-min Rain = 0
KCO2 242119Z 29007KT 28/03 A2999 RMK A01 T02820028  RH  019%=      5-min Rain = 0
KCO2 242120Z 27007KT 28/03 A2999 RMK A01 T02810031  RH  020%=      5-min Rain = 0
KCO2 242121Z 30008KT 28/03 A2999 RMK A01 T02840033  RH  020%=      5-min Rain = 0
KCO2 242122Z 29008KT 29/03 A2999 RMK A01 T02850030  RH  020%=      5-min Rain = 0
KCO2 242123Z 30010KT 28/04 A2999 RMK A01 T02840035  RH  020%=      5-min Rain = 0
KCO2 242124Z 27012KT 28/04 A2999 RMK A01 T02840037  RH  021%=      5-min Rain = 0
KCO2 242125Z 26012KT 29/04 A2999 RMK A01 T02860038  RH  020%=      5-min Rain = 0
KCO2 242126Z 26008KT 29/04 A2999 RMK A01 T02870038  RH  020%=      5-min Rain = 0
KCO2 242127Z 28005KT 29/04 A2999 RMK A01 T02870040  RH  021%=      5-min Rain = 0
KCO2 242128Z 27009KT 29/04 A2999 RMK A01 T02870038  RH  020%=      5-min Rain = 0
KCO2 242129Z 25008KT 29/04 A2999 RMK A01 T02860037  RH  020%=      5-min Rain = 0
KCO2 242130Z 23009KT 29/04 A2999 RMK A01 T02860038  RH  021%=      5-min Rain = 0
KCO2 242131Z 22011KT 29/04 A2999 RMK A01 T02870036  RH  020%=      5-min Rain = 0
KCO2 242132Z 21008KT 29/03 A2999 RMK A01 T02850031  RH  020%=      5-min Rain = 0
KCO2 242133Z 21006KT 28/03 A2999 RMK A01 T02830034  RH  020%=      5-min Rain = 0
KCO2 242134Z 22007KT 28/03 A2999 RMK A01 T02830034  RH  020%=      5-min Rain = 0
KCO2 242135Z 22005KT 28/03 A2999 RMK A01 T02820034  RH  020%=      5-min Rain = 0
KCO2 242136Z 23002KT 28/03 A2999 RMK A01 T02820033  RH  020%=      5-min Rain = 0
KCO2 242137Z 25003KT 28/04 A2999 RMK A01 T02830036  RH  021%=      5-min Rain = 0
KCO2 242138Z 24002G7KT 28/03 A2998 RMK A01 T02840034  RH  020%=      5-min Rain = 0
KCO2 242139Z 27008KT 29/04 A2999 RMK A01 T02860038  RH  020%=      5-min Rain = 0
KCO2 242140Z 26007G13KT 29/04 A2998 RMK A01 T02870036  RH  020%=      5-min Rain = 0
KCO2 242141Z 26010KT 29/04 A2998 RMK A01 T02850035  RH  020%=      5-min Rain = 0
KCO2 242142Z 27011KT 28/04 A2998 RMK A01 T02840035  RH  020%=      5-min Rain = 0
KCO2 242143Z 26007KT 28/03 A2998 RMK A01 T02840032  RH  020%=      5-min Rain = 0
KCO2 242144Z 25007KT 28/03 A2998 RMK A01 T02840033  RH  020%=      5-min Rain = 0
KCO2 242145Z 26009KT 28/04 A2998 RMK A01 T02840038  RH  021%=      5-min Rain = 0
KCO2 242146Z 26010KT 29/04 A2998 RMK A01 T02880036  RH  020%=      5-min Rain = 0
KCO2 242147Z 28010KT 29/04 A2998 RMK A01 T02890036  RH  020%=      5-min Rain = 0
KCO2 242148Z 27011KT 29/04 A2998 RMK A01 T02890036  RH  020%=      5-min Rain = 0
KCO2 242149Z 27010KT 29/04 A2998 RMK A01 T02870038  RH  020%=      5-min Rain = 0
KCO2 242150Z 26009KT 29/04 A2998 RMK A01 T02870038  RH  020%=      5-min Rain = 0
KCO2 242151Z 27011KT 29/04 A2998 RMK A01 T02870038  RH  020%=      5-min Rain = 0
KCO2 242152Z 27011G16KT 29/04 A2998 RMK A01 T02860035  RH  020%=      5-min Rain = 0
KCO2 242153Z 28012KT 29/04 A2998 RMK A01 T02870035  RH  020%=      5-min Rain = 0
KCO2 242154Z 29012KT 29/03 A2998 RMK A01 T02870034  RH  020%=      5-min Rain = 0
KCO2 242155Z 27011KT 29/03 A2998 RMK A01 T02850034  RH  020%=      5-min Rain = 0
KCO2 242156Z 25009KT 28/03 A2998 RMK A01 T02840031  RH  020%=      5-min Rain = 0
KCO2 242157Z 24007KT 28/02 A2998 RMK A01 T02830024  RH  019%=      5-min Rain = 0
KCO2 242158Z 25009KT 28/03 A2998 RMK A01 T02840028  RH  019%=      5-min Rain = 0
KCO2 242159Z 25008KT 29/03 A2998 RMK A01 T02870027  RH  019%=      5-min Rain = 0
KCO2 242200Z 25006KT 29/02 A2998 RMK A01 T02860023  RH  018%=      5-min Rain = 0
KCO2 242201Z 24006KT 28/02 A2998 RMK A01 T02840024  RH  019%=      5-min Rain = 0
KCO2 242202Z 24004KT 28/02 A2998 RMK A01 T02820022  RH  019%=      5-min Rain = 0
KCO2 242203Z 27003KT 28/03 A2998 RMK A01 T02810026  RH  019%=      5-min Rain = 0
KCO2 242204Z 27003KT 28/03 A2998 RMK A01 T02800028  RH  020%=      5-min Rain = 0
KCO2 242205Z 25004KT 28/03 A2998 RMK A01 T02810030  RH  020%=      5-min Rain = 0
KCO2 242206Z 24006KT 28/03 A2998 RMK A01 T02830029  RH  020%=      5-min Rain = 0
KCO2 242207Z 24005KT 28/03 A2998 RMK A01 T02830026  RH  019%=      5-min Rain = 0
KCO2 242208Z 24002KT 28/03 A2998 RMK A01 T02820025  RH  019%=      5-min Rain = 0
KCO2 242209Z 29000KT 28/03 A2998 RMK A01 T02810025  RH  019%=      5-min Rain = 0
KCO2 242210Z 26001KT 28/03 A2998 RMK A01 T02800026  RH  019%=      5-min Rain = 0
KCO2 242211Z 23003KT 28/03 A2998 RMK A01 T02810029  RH  020%=      5-min Rain = 0
KCO2 242212Z 27008KT 28/03 A2998 RMK A01 T02830026  RH  019%=      5-min Rain = 0
KCO2 242213Z 25008KT 29/02 A2998 RMK A01 T02850020  RH  018%=      5-min Rain = 0
KCO2 242214Z 26007KT 29/02 A2998 RMK A01 T02870019  RH  018%=      5-min Rain = 0
KCO2 242215Z 28010KT 29/02 A2998 RMK A01 T02900021  RH  018%=      5-min Rain = 0
KCO2 242216Z 29009KT 29/02 A2998 RMK A01 T02900021  RH  018%=      5-min Rain = 0
KCO2 242217Z 29008KT 29/02 A2998 RMK A01 T02900020  RH  018%=      5-min Rain = 0
KCO2 242218Z 30007KT 29/02 A2998 RMK A01 T02890018  RH  017%=      5-min Rain = 0
KCO2 242219Z 29008KT 29/02 A2998 RMK A01 T02880018  RH  018%=      5-min Rain = 0
KCO2 242220Z 26005KT 29/02 A2998 RMK A01 T02880018  RH  018%=      5-min Rain = 0
KCO2 242221Z 25005KT 29/02 A2998 RMK A01 T02890015  RH  017%=      5-min Rain = 0
KCO2 242222Z 22007KT 29/02 A2998 RMK A01 T02900015  RH  017%=      5-min Rain = 0
KCO2 242223Z 22005KT 29/02 A2998 RMK A01 T02910019  RH  017%=      5-min Rain = 0
KCO2 242224Z 27004KT 29/02 A2998 RMK A01 T02940024  RH  018%=      5-min Rain = 0
KCO2 242225Z 28006KT 30/02 A2998 RMK A01 T02960021  RH  017%=      5-min Rain = 0
KCO2 242226Z 28006KT 29/02 A2998 RMK A01 T02920016  RH  017%=      5-min Rain = 0
KCO2 242227Z 30005KT 29/02 A2998 RMK A01 T02900017  RH  017%=      5-min Rain = 0
KCO2 242228Z 34006KT 29/01 A2998 RMK A01 T02900012  RH  017%=      5-min Rain = 0
KCO2 242229Z 35005KT 29/01 A2998 RMK A01 T02890007  RH  016%=      5-min Rain = 0
KCO2 242230Z 32005KT 29/01 A2998 RMK A01 T02860007  RH  016%=      5-min Rain = 0
KCO2 242231Z 30007KT 29/01 A2998 RMK A01 T02850014  RH  017%=      5-min Rain = 0
KCO2 242232Z 30010KT 29/02 A2998 RMK A01 T02880017  RH  018%=      5-min Rain = 0
KCO2 242233Z 30009KT 29/02 A2998 RMK A01 T02880018  RH  017%=      5-min Rain = 0
KCO2 242234Z 31009KT 29/01 A2998 RMK A01 T02870014  RH  017%=      5-min Rain = 0
KCO2 242235Z 32007KT 29/01 A2998 RMK A01 T02850013  RH  017%=      5-min Rain = 0
KCO2 242236Z 31006KT 28/01 A2998 RMK A01 T02840014  RH  017%=      5-min Rain = 0
KCO2 242237Z 33005KT 29/02 A2998 RMK A01 T02850015  RH  018%=      5-min Rain = 0
KCO2 242238Z 32004KT 29/01 A2998 RMK A01 T02850013  RH  017%=      5-min Rain = 0
KCO2 242239Z 26004KT 29/02 A2998 RMK A01 T02850016  RH  018%=      5-min Rain = 0
KCO2 242240Z 24009KT 29/01 A2998 RMK A01 T02860010  RH  017%=      5-min Rain = 0
KCO2 242241Z 23010KT 29/00 A2998 RMK A01 T02880003  RH  016%=      5-min Rain = 0
KCO2 242242Z 22009KT 29/00 A2998 RMK A01 T02890003  RH  016%=      5-min Rain = 0
KCO2 242243Z 23007KT 29/00 A2998 RMK A01 T02890004  RH  016%=      5-min Rain = 0
KCO2 242244Z 23006KT 29/00 A2998 RMK A01 T02890003  RH  016%=      5-min Rain = 0
KCO2 242245Z 23006KT 29/01 A2998 RMK A01 T02900006  RH  016%=      5-min Rain = 0
KCO2 242246Z 25007KT 29/01 A2998 RMK A01 T02910006  RH  016%=      5-min Rain = 0
KCO2 242247Z 27011KT 29/01 A2998 RMK A01 T02920013  RH  017%=      5-min Rain = 0
KCO2 242248Z 27013KT 29/01 A2998 RMK A01 T02920013  RH  017%=      5-min Rain = 0
KCO2 242249Z 26013KT 29/01 A2998 RMK A01 T02900011  RH  017%=      5-min Rain = 0
KCO2 242250Z 27011KT 29/01 A2998 RMK A01 T02880008  RH  016%=      5-min Rain = 0
KCO2 242251Z 28009KT 29/01 A2998 RMK A01 T02860009  RH  017%=      5-min Rain = 0
KCO2 242252Z 28009KT 29/01 A2998 RMK A01 T02860009  RH  017%=      5-min Rain = 0
KCO2 242253Z 28008KT 29/01 A2998 RMK A01 T02850007  RH  016%=      5-min Rain = 0
KCO2 242254Z 28008KT 28/01 A2998 RMK A01 T02830007  RH  017%=      5-min Rain = 0
KCO2 242255Z 28007KT 28/01 A2998 RMK A01 T02840012  RH  017%=      5-min Rain = 0
KCO2 242256Z 28008KT 29/01 A2998 RMK A01 T02860011  RH  017%=      5-min Rain = 0
KCO2 242257Z 29008KT 29/01 A2998 RMK A01 T02860011  RH  017%=      5-min Rain = 0
KCO2 242258Z 31007KT 29/01 A2998 RMK A01 T02860010  RH  017%=      5-min Rain = 0
KCO2 242259Z 32008KT 29/01 A2998 RMK A01 T02850011  RH  017%=      5-min Rain = 0
KCO2 242300Z 32006KT 28/01 A2998 RMK A01 T02830007  RH  017%=      5-min Rain = 0
KCO2 242301Z 31004KT 28/01 A2998 RMK A01 T02820007  RH  017%=      5-min Rain = 0
KCO2 242302Z 30005KT 28/01 A2998 RMK A01 T02810010  RH  017%=      5-min Rain = 0
KCO2 242303Z 30006KT 28/01 A2998 RMK A01 T02830013  RH  017%=      5-min Rain = 0
KCO2 242304Z 29006KT 29/01 A2998 RMK A01 T02850011  RH  017%=      5-min Rain = 0
KCO2 242305Z 29007KT 29/01 A2998 RMK A01 T02860011  RH  017%=      5-min Rain = 0
KCO2 242306Z 29008KT 29/01 A2998 RMK A01 T02880008  RH  016%=      5-min Rain = 0
KCO2 242307Z 30008KT 29/01 A2998 RMK A01 T02890009  RH  016%=      5-min Rain = 0
KCO2 242308Z 29011KT 29/01 A2998 RMK A01 T02890006  RH  016%=      5-min Rain = 0
KCO2 242309Z 31008KT 29/00 A2998 RMK A01 T02870002  RH  016%=      5-min Rain = 0
KCO2 242310Z 31008KT 29/00 A2998 RMK A01 T02850000  RH  016%=      5-min Rain = 0
KCO2 242311Z 29009KT 28/00 A2998 RMK A01 T02840003  RH  016%=      5-min Rain = 0
KCO2 242312Z 28010KT 29/00 A2998 RMK A01 T02850004  RH  016%=      5-min Rain = 0
KCO2 242313Z 32006KT 29/00 A2998 RMK A01 T02850000  RH  016%=      5-min Rain = 0
KCO2 242314Z 32006KT 28/M00 A2998 RMK A01 T02841001  RH  016%=      5-min Rain = 0
KCO2 242315Z 30004KT 28/00 A2998 RMK A01 T02840001  RH  016%=      5-min Rain = 0
KCO2 242316Z 29004KT 29/01 A2998 RMK A01 T02850005  RH  016%=      5-min Rain = 0
KCO2 242317Z 29008KT 29/01 A2998 RMK A01 T02860006  RH  016%=      5-min Rain = 0
KCO2 242318Z 28007KT 29/00 A2998 RMK A01 T02870002  RH  016%=      5-min Rain = 0
KCO2 242319Z 28005KT 29/00 A2998 RMK A01 T02850001  RH  016%=      5-min Rain = 0
KCO2 242320Z 31006KT 29/00 A2998 RMK A01 T02850003  RH  016%=      5-min Rain = 0
KCO2 242321Z 32009KT 28/00 A2998 RMK A01 T02840002  RH  016%=      5-min Rain = 0
KCO2 242322Z 31009KT 28/00 A2998 RMK A01 T02840001  RH  016%=      5-min Rain = 0
KCO2 242323Z 30007KT 28/00 A2998 RMK A01 T02820000  RH  016%=      5-min Rain = 0
KCO2 242324Z 29008KT 28/00 A2998 RMK A01 T02810001  RH  016%=      5-min Rain = 0
KCO2 242325Z 30006KT 28/00 A2998 RMK A01 T02810004  RH  016%=      5-min Rain = 0
KCO2 242326Z 30007KT 28/01 A2998 RMK A01 T02820006  RH  017%=      5-min Rain = 0
KCO2 242327Z 31009KT 28/00 A2998 RMK A01 T02830004  RH  016%=      5-min Rain = 0
KCO2 242328Z 30008KT 28/00 A2998 RMK A01 T02830003  RH  016%=      5-min Rain = 0
KCO2 242329Z 31009KT 28/01 A2998 RMK A01 T02810005  RH  017%=      5-min Rain = 0
KCO2 242330Z 31010KT 28/00 A2998 RMK A01 T02780003  RH  017%=      5-min Rain = 0
KCO2 242331Z 32007KT 28/00 A2998 RMK A01 T02750000  RH  017%=      5-min Rain = 0
KCO2 242332Z 33009KT 27/00 A2998 RMK A01 T027200-0  RH  017%=      5-min Rain = 0
KCO2 242333Z 34008KT 27/M00 A2998 RMK A01 T02691003  RH  017%=      5-min Rain = 0
KCO2 242334Z 34007KT 27/M00 A2998 RMK A01 T02681003  RH  017%=      5-min Rain = 0
KCO2 242335Z 33007KT 27/M00 A2998 RMK A01 T02671002  RH  017%=      5-min Rain = 0
KCO2 242336Z 33007KT 27/00 A2998 RMK A01 T026500-0  RH  018%=      5-min Rain = 0
KCO2 242337Z 33008KT 26/M00 A2998 RMK A01 T02641001  RH  018%=      5-min Rain = 0
KCO2 242338Z 33007KT 27/00 A2998 RMK A01 T026600-0  RH  018%=      5-min Rain = 0
KCO2 242339Z 33007KT 27/00 A2998 RMK A01 T026800-0  RH  017%=      5-min Rain = 0
KCO2 242340Z 34006KT 27/00 A2998 RMK A01 T027000-0  RH  017%=      5-min Rain = 0
KCO2 242341Z 34006KT 27/00 A2998 RMK A01 T02720001  RH  017%=      5-min Rain = 0
KCO2 242342Z 34005KT 27/00 A2998 RMK A01 T027300-0  RH  017%=      5-min Rain = 0
KCO2 242343Z 34004KT 27/00 A2998 RMK A01 T02740002  RH  017%=      5-min Rain = 0
KCO2 242344Z 35004KT 28/00 A2998 RMK A01 T02750001  RH  017%=      5-min Rain = 0
KCO2 242345Z 34003KT 28/00 A2998 RMK A01 T02760002  RH  017%=      5-min Rain = 0
KCO2 242346Z 35005KT 28/00 A2998 RMK A01 T02770001  RH  017%=      5-min Rain = 0
KCO2 242347Z 34007KT 28/00 A2998 RMK A01 T02770001  RH  017%=      5-min Rain = 0
KCO2 242348Z 35008KT 28/00 A2998 RMK A01 T02770000  RH  016%=      5-min Rain = 0
KCO2 242349Z 33007KT 28/M00 A2998 RMK A01 T02771001  RH  016%=      5-min Rain = 0
KCO2 242350Z 33006KT 28/M00 A2998 RMK A01 T02761001  RH  016%=      5-min Rain = 0
KCO2 242351Z 33006KT 28/00 A2998 RMK A01 T02760001  RH  017%=      5-min Rain = 0
KCO2 242352Z 35008KT 28/00 A2998 RMK A01 T02770001  RH  017%=      5-min Rain = 0
KCO2 242353Z 34008KT 28/M00 A2998 RMK A01 T02771002  RH  016%=      5-min Rain = 0
KCO2 242354Z 33008KT 28/M00 A2998 RMK A01 T02761003  RH  016%=      5-min Rain = 0
KCO2 242355Z 34008KT 28/M00 A2998 RMK A01 T02751003  RH  016%=      5-min Rain = 0
KCO2 242356Z 33007KT 28/M00 A2998 RMK A01 T02751003  RH  016%=      5-min Rain = 0
KCO2 242357Z 34007KT 27/M00 A2998 RMK A01 T02741004  RH  016%=      5-min Rain = 0
KCO2 242358Z 35006KT 27/M00 A2998 RMK A01 T02741003  RH  016%=      5-min Rain = 0
KCO2 242359Z 34008KT 27/M00 A2998 RMK A01 T02741003  RH  016%=      5-min Rain = 0
KCO2 250000Z 34006KT 27/M01 A2998 RMK A01 T02741005  RH  016%=      5-min Rain = 0
KCO2 250001Z 34007KT 27/M00 A2998 RMK A01 T02731004  RH  016%=      5-min Rain = 0
KCO2 250002Z 34007KT 27/M01 A2998 RMK A01 T02731005  RH  016%=      5-min Rain = 0
KCO2 250003Z 35005KT 27/M00 A2998 RMK A01 T02731004  RH  016%=      5-min Rain = 0
KCO2 250004Z 36005KT 27/M00 A2998 RMK A01 T02731003  RH  017%=      5-min Rain = 0
KCO2 250005Z 01006KT 27/00 A2998 RMK A01 T02730001  RH  017%=      5-min Rain = 0
KCO2 250006Z 35007KT 27/00 A2998 RMK A01 T02730000  RH  017%=      5-min Rain = 0
KCO2 250007Z 35006KT 27/M00 A2998 RMK A01 T02731002  RH  017%=      5-min Rain = 0
KCO2 250008Z 02006KT 27/M00 A2998 RMK A01 T02721002  RH  017%=      5-min Rain = 0
KCO2 250009Z 01008KT 27/M00 A2998 RMK A01 T02721002  RH  017%=      5-min Rain = 0
KCO2 250010Z 01007KT 27/M00 A2998 RMK A01 T02711004  RH  017%=      5-min Rain = 0
KCO2 250011Z 01006KT 27/M00 A2998 RMK A01 T02701004  RH  017%=      5-min Rain = 0
KCO2 250012Z 01005KT 27/M00 A2998 RMK A01 T02701002  RH  017%=      5-min Rain = 0
KCO2 250013Z 01007KT 27/00 A2998 RMK A01 T027000-0  RH  017%=      5-min Rain = 0
KCO2 250014Z 01007KT 27/M00 A2998 RMK A01 T02691003  RH  017%=      5-min Rain = 0
KCO2 250015Z 00006KT 27/M00 A2998 RMK A01 T02691003  RH  017%=      5-min Rain = 0
KCO2 250016Z 01006KT 27/M00 A2999 RMK A01 T02691003  RH  017%=      5-min Rain = 0
KCO2 250017Z 01007KT 27/M00 A2999 RMK A01 T02681003  RH  017%=      5-min Rain = 0
KCO2 250018Z 01008KT 27/M01 A2999 RMK A01 T02671005  RH  017%=      5-min Rain = 0
KCO2 250019Z 01007KT 27/M01 A2999 RMK A01 T02671006  RH  017%=      5-min Rain = 0
KCO2 250020Z 01007KT 27/M01 A2999 RMK A01 T02671005  RH  017%=      5-min Rain = 0
KCO2 250021Z 01006KT 27/M01 A2999 RMK A01 T02661005  RH  017%=      5-min Rain = 0
KCO2 250022Z 01006KT 27/M00 A2999 RMK A01 T02661003  RH  017%=      5-min Rain = 0
KCO2 250023Z 01005KT 27/M00 A2999 RMK A01 T02651003  RH  017%=      5-min Rain = 0
KCO2 250024Z 01006KT 27/M00 A2999 RMK A01 T02651003  RH  017%=      5-min Rain = 0
KCO2 250025Z 01006KT 27/M00 A2999 RMK A01 T02651003  RH  017%=      5-min Rain = 0
KCO2 250026Z 01005KT 26/M00 A2999 RMK A01 T02641002  RH  017%=      5-min Rain = 0
KCO2 250027Z 01005KT 26/M00 A2999 RMK A01 T02641001  RH  018%=      5-min Rain = 0
KCO2 250028Z 01005KT 26/M00 A2999 RMK A01 T02631001  RH  018%=      5-min Rain = 0
KCO2 250029Z 01005KT 26/M00 A2999 RMK A01 T02621001  RH  018%=      5-min Rain = 0
KCO2 250030Z 01005KT 26/M00 A2999 RMK A01 T02621001  RH  018%=      5-min Rain = 0
KCO2 250031Z 01005KT 26/00 A2999 RMK A01 T026100-0  RH  018%=      5-min Rain = 0
KCO2 250032Z 01004KT 26/00 A2999 RMK A01 T02600000  RH  018%=      5-min Rain = 0
KCO2 250033Z 01004KT 26/00 A2999 RMK A01 T025900-0  RH  018%=      5-min Rain = 0
KCO2 250034Z 01003KT 26/00 A2999 RMK A01 T025800-0  RH  018%=      5-min Rain = 0
KCO2 250035Z 00003KT 26/M00 A2999 RMK A01 T02581001  RH  018%=      5-min Rain = 0
KCO2 250036Z 01003KT 26/M00 A2999 RMK A01 T02581001  RH  018%=      5-min Rain = 0
KCO2 250037Z 01003KT 26/00 A2999 RMK A01 T025700-0  RH  018%=      5-min Rain = 0
KCO2 250038Z 02003KT 26/00 A2999 RMK A01 T02570000  RH  019%=      5-min Rain = 0
KCO2 250039Z 02004KT 26/00 A2999 RMK A01 T02550002  RH  019%=      5-min Rain = 0
KCO2 250040Z 02005KT 25/00 A2999 RMK A01 T02540003  RH  019%=      5-min Rain = 0
KCO2 250041Z 02006KT 25/00 A2999 RMK A01 T02520003  RH  019%=      5-min Rain = 0
KCO2 250042Z 02007KT 25/00 A2999 RMK A01 T02490002  RH  020%=      5-min Rain = 0
KCO2 250043Z 02007KT 25/00 A2999 RMK A01 T02470002  RH  020%=      5-min Rain = 0
KCO2 250044Z 02007KT 25/00 A2999 RMK A01 T02450002  RH  020%=      5-min Rain = 0
KCO2 250045Z 02007KT 24/00 A2999 RMK A01 T02430001  RH  020%=      5-min Rain = 0
KCO2 250046Z 02007KT 24/00 A2999 RMK A01 T02420001  RH  020%=      5-min Rain = 0
KCO2 250047Z 02007KT 24/00 A2999 RMK A01 T02410001  RH  021%=      5-min Rain = 0
KCO2 250048Z 02007KT 24/00 A2999 RMK A01 T02400002  RH  021%=      5-min Rain = 0
KCO2 250049Z 02006KT 24/00 A2999 RMK A01 T02390001  RH  021%=      5-min Rain = 0
KCO2 250050Z 02006KT 24/00 A2999 RMK A01 T02380001  RH  021%=      5-min Rain = 0
KCO2 250051Z 02006KT 24/00 A2999 RMK A01 T02370000  RH  021%=      5-min Rain = 0
KCO2 250052Z 02006KT 24/00 A30 RMK A01 T02360000  RH  021%=      5-min Rain = 0
KCO2 250053Z 02006KT 24/00 A30 RMK A01 T02350000  RH  021%=      5-min Rain = 0
KCO2 250054Z 02006KT 23/00 A30 RMK A01 T02340001  RH  021%=      5-min Rain = 0
KCO2 250055Z 02006KT 23/00 A30 RMK A01 T02320001  RH  022%=      5-min Rain = 0
KCO2 250056Z 02006KT 23/00 A30 RMK A01 T02310001  RH  022%=      5-min Rain = 0
KCO2 250057Z 02006KT 23/00 A30 RMK A01 T02290000  RH  022%=      5-min Rain = 0
KCO2 250058Z 02006KT 23/00 A30 RMK A01 T02290000  RH  022%=      5-min Rain = 0
KCO2 250059Z 02006KT 23/M00 A30 RMK A01 T02271001  RH  022%=      5-min Rain = 0
KCO2 250100Z 02006KT 23/00 A30 RMK A01 T022600-0  RH  022%=      5-min Rain = 0
KCO2 250101Z 03006KT 23/00 A30 RMK A01 T022500-0  RH  022%=      5-min Rain = 0
KCO2 250102Z 02007KT 22/M00 A30 RMK A01 T02241001  RH  022%=      5-min Rain = 0
KCO2 250103Z 02007KT 22/M00 A30 RMK A01 T02231001  RH  022%=      5-min Rain = 0
KCO2 250104Z 02007KT 22/M00 A30 RMK A01 T02221001  RH  023%=      5-min Rain = 0
KCO2 250105Z 02007KT 22/00 A30 RMK A01 T02200000  RH  023%=      5-min Rain = 0
KCO2 250106Z 02007KT 22/00 A30 RMK A01 T02170001  RH  024%=      5-min Rain = 0
KCO2 250107Z 02008KT 22/00 A30 RMK A01 T02150001  RH  024%=      5-min Rain = 0
KCO2 250108Z 02008KT 21/00 A30 RMK A01 T02140002  RH  024%=      5-min Rain = 0
KCO2 250109Z 02008KT 21/00 A30 RMK A01 T02120002  RH  025%=      5-min Rain = 0
KCO2 250110Z 02007KT 21/00 A30 RMK A01 T02120002  RH  025%=      5-min Rain = 0
KCO2 250111Z 02007KT 21/00 A30 RMK A01 T02110002  RH  025%=      5-min Rain = 0
KCO2 250112Z 02007KT 21/00 A30 RMK A01 T02110002  RH  025%=      5-min Rain = 0
KCO2 250113Z 02007KT 21/00 A30 RMK A01 T02110002  RH  025%=      5-min Rain = 0
KCO2 250114Z 02007KT 21/00 A30 RMK A01 T02110001  RH  025%=      5-min Rain = 0
KCO2 250115Z 02008KT 21/00 A30 RMK A01 T02110000  RH  025%=      5-min Rain = 0
KCO2 250116Z 02008KT 21/00 A30 RMK A01 T02110000  RH  025%=      5-min Rain = 0
KCO2 250117Z 02007KT 21/00 A30 RMK A01 T02110000  RH  025%=      5-min Rain = 0
KCO2 250118Z 03007KT 21/00 A30 RMK A01 T020900-0  RH  025%=      5-min Rain = 0
KCO2 250119Z 03008KT 21/00 A30 RMK A01 T020700-0  RH  025%=      5-min Rain = 0
KCO2 250120Z 03008KT 21/00 A30 RMK A01 T020600-0  RH  025%=      5-min Rain = 0
KCO2 250121Z 03008KT 21/M00 A30 RMK A01 T02051001  RH  025%=      5-min Rain = 0
KCO2 250122Z 03008KT 20/M00 A30 RMK A01 T02041001  RH  025%=      5-min Rain = 0
KCO2 250123Z 03008KT 20/00 A30 RMK A01 T02040000  RH  026%=      5-min Rain = 0
KCO2 250124Z 03009KT 20/00 A30 RMK A01 T02030001  RH  026%=      5-min Rain = 0
KCO2 250125Z 04010KT 20/00 A30 RMK A01 T02020001  RH  026%=      5-min Rain = 0
KCO2 250126Z 04011KT 20/01 A3001 RMK A01 T02000007  RH  027%=      5-min Rain = 0
KCO2 250127Z 04012KT 20/02 A3001 RMK A01 T02030023  RH  030%=      5-min Rain = 0
KCO2 250128Z 05011KT 21/04 A3001 RMK A01 T02070036  RH  032%=      5-min Rain = 0
KCO2 250129Z 05011KT 21/04 A3001 RMK A01 T02090041  RH  033%=      5-min Rain = 0
KCO2 250130Z 06009KT 21/04 A3001 RMK A01 T02110042  RH  033%=      5-min Rain = 0
KCO2 250131Z 06011KT 21/04 A3001 RMK A01 T02110043  RH  033%=      5-min Rain = 0
KCO2 250132Z 06010KT 21/05 A3001 RMK A01 T02110045  RH  034%=      5-min Rain = 0
KCO2 250133Z 06011KT 21/05 A3001 RMK A01 T02110046  RH  034%=      5-min Rain = 0
KCO2 250134Z 06010KT 21/05 A3001 RMK A01 T02100047  RH  034%=      5-min Rain = 0
KCO2 250135Z 06010KT 21/05 A3001 RMK A01 T02100048  RH  035%=      5-min Rain = 0
KCO2 250136Z 06010KT 21/05 A3001 RMK A01 T02080049  RH  035%=      5-min Rain = 0
KCO2 250137Z 06010KT 21/05 A3001 RMK A01 T02080050  RH  035%=      5-min Rain = 0
KCO2 250138Z 06009KT 21/05 A3001 RMK A01 T02060050  RH  036%=      5-min Rain = 0
KCO2 250139Z 06009KT 21/05 A3001 RMK A01 T02060051  RH  036%=      5-min Rain = 0
KCO2 250140Z 06008KT 21/05 A3001 RMK A01 T02050052  RH  037%=      5-min Rain = 0
KCO2 250141Z 06009KT 20/05 A3001 RMK A01 T02030053  RH  037%=      5-min Rain = 0
KCO2 250142Z 06009KT 20/05 A3001 RMK A01 T02020053  RH  038%=      5-min Rain = 0
KCO2 250143Z 06009KT 20/05 A3001 RMK A01 T02010054  RH  038%=      5-min Rain = 0
KCO2 250144Z 06010KT 20/06 A3001 RMK A01 T02000055  RH  039%=      5-min Rain = 0
KCO2 250145Z 06009KT 20/06 A3001 RMK A01 T02000056  RH  039%=      5-min Rain = 0
KCO2 250146Z 06010KT 20/06 A3001 RMK A01 T02000057  RH  039%=      5-min Rain = 0
KCO2 250147Z 06010KT 20/06 A3001 RMK A01 T01990057  RH  039%=      5-min Rain = 0
KCO2 250148Z 06010KT 20/06 A3002 RMK A01 T01980058  RH  040%=      5-min Rain = 0
KCO2 250149Z 06010KT 20/06 A3002 RMK A01 T01980058  RH  040%=      5-min Rain = 0
KCO2 250150Z 06010KT 20/06 A3002 RMK A01 T01980058  RH  040%=      5-min Rain = 0
KCO2 250151Z 06009KT 20/06 A3002 RMK A01 T01970058  RH  040%=      5-min Rain = 0
KCO2 250152Z 06010KT 20/06 A3002 RMK A01 T01960058  RH  040%=      5-min Rain = 0
KCO2 250153Z 06010KT 20/06 A3002 RMK A01 T01960059  RH  041%=      5-min Rain = 0
KCO2 250154Z 05009KT 20/06 A3002 RMK A01 T01960059  RH  041%=      5-min Rain = 0
KCO2 250155Z 05009KT 20/06 A3002 RMK A01 T01950058  RH  041%=      5-min Rain = 0
KCO2 250156Z 05009KT 19/06 A3002 RMK A01 T01940059  RH  041%=      5-min Rain = 0
KCO2 250157Z 05009KT 19/06 A3002 RMK A01 T01940059  RH  041%=      5-min Rain = 0
KCO2 250158Z 06010KT 19/06 A3002 RMK A01 T01940059  RH  041%=      5-min Rain = 0
KCO2 250159Z 06009KT 19/06 A3002 RMK A01 T01940059  RH  041%=      5-min Rain = 0
KCO2 250200Z 06009KT 19/06 A3002 RMK A01 T01940059  RH  041%=      5-min Rain = 0
KCO2 250201Z 07009KT 19/06 A3002 RMK A01 T01940059  RH  041%=      5-min Rain = 0
KCO2 250202Z 07009KT 19/06 A3002 RMK A01 T01930059  RH  041%=      5-min Rain = 0
KCO2 250203Z 07009KT 19/06 A3002 RMK A01 T01930059  RH  042%=      5-min Rain = 0
KCO2 250204Z 07009KT 19/06 A3002 RMK A01 T01920059  RH  042%=      5-min Rain = 0
KCO2 250205Z 07009KT 19/06 A3002 RMK A01 T01910059  RH  042%=      5-min Rain = 0
KCO2 250206Z 07009KT 19/06 A3002 RMK A01 T01910059  RH  042%=      5-min Rain = 0
KCO2 250207Z 07009KT 19/06 A3002 RMK A01 T01900059  RH  042%=      5-min Rain = 0
KCO2 250208Z 07009KT 19/06 A3002 RMK A01 T01900060  RH  042%=      5-min Rain = 0
KCO2 250209Z 07008KT 19/06 A3002 RMK A01 T01900060  RH  043%=      5-min Rain = 0
KCO2 250210Z 07009KT 19/06 A3003 RMK A01 T01900060  RH  043%=      5-min Rain = 0
KCO2 250211Z 07009KT 19/06 A3003 RMK A01 T01890060  RH  043%=      5-min Rain = 0
KCO2 250212Z 06009KT 19/06 A3003 RMK A01 T01890060  RH  043%=      5-min Rain = 0
KCO2 250213Z 07009KT 19/06 A3003 RMK A01 T01890060  RH  043%=      5-min Rain = 0
KCO2 250214Z 07009KT 19/06 A3003 RMK A01 T01890060  RH  043%=      5-min Rain = 0
KCO2 250215Z 07009KT 19/06 A3003 RMK A01 T01890060  RH  043%=      5-min Rain = 0
KCO2 250216Z 06009KT 19/06 A3003 RMK A01 T01890060  RH  043%=      5-min Rain = 0
KCO2 250217Z 06009KT 19/06 A3003 RMK A01 T01890060  RH  043%=      5-min Rain = 0
KCO2 250218Z 06009KT 19/06 A3003 RMK A01 T01890060  RH  043%=      5-min Rain = 0
KCO2 250219Z 05009KT 19/06 A3003 RMK A01 T01880060  RH  043%=      5-min Rain = 0
KCO2 250220Z 05009KT 19/06 A3003 RMK A01 T01870060  RH  043%=      5-min Rain = 0
KCO2 250221Z 05008KT 19/06 A3003 RMK A01 T01860060  RH  044%=      5-min Rain = 0
KCO2 250222Z 05009KT 19/06 A3003 RMK A01 T01850060  RH  044%=      5-min Rain = 0
KCO2 250223Z 05008KT 19/06 A3003 RMK A01 T01850060  RH  044%=      5-min Rain = 0
KCO2 250224Z 05009KT 18/06 A3003 RMK A01 T01840060  RH  044%=      5-min Rain = 0
KCO2 250225Z 05009KT 18/06 A3003 RMK A01 T01830060  RH  044%=      5-min Rain = 0
KCO2 250226Z 05009KT 18/06 A3003 RMK A01 T01830060  RH  045%=      5-min Rain = 0
KCO2 250227Z 05009KT 18/06 A3004 RMK A01 T01820060  RH  045%=      5-min Rain = 0
KCO2 250228Z 05009KT 18/06 A3004 RMK A01 T01810060  RH  045%=      5-min Rain = 0
KCO2 250229Z 05009KT 18/06 A3004 RMK A01 T01810060  RH  045%=      5-min Rain = 0
KCO2 250230Z 06009KT 18/06 A3004 RMK A01 T01820060  RH  045%=      5-min Rain = 0
KCO2 250231Z 06009KT 18/06 A3004 RMK A01 T01810060  RH  045%=      5-min Rain = 0
KCO2 250232Z 07010KT 18/06 A3003 RMK A01 T01810060  RH  045%=      5-min Rain = 0
KCO2 250233Z 07010KT 18/06 A3003 RMK A01 T01820060  RH  045%=      5-min Rain = 0
KCO2 250234Z 07010KT 18/06 A3003 RMK A01 T01820060  RH  045%=      5-min Rain = 0
KCO2 250235Z 07009KT 18/06 A3003 RMK A01 T01820060  RH  045%=      5-min Rain = 0
KCO2 250236Z 08011KT 18/06 A3003 RMK A01 T01820060  RH  045%=      5-min Rain = 0
KCO2 250237Z 08010KT 18/06 A3004 RMK A01 T01820060  RH  045%=      5-min Rain = 0
KCO2 250238Z 07010KT 18/06 A3004 RMK A01 T01820061  RH  045%=      5-min Rain = 0
KCO2 250239Z 07010KT 18/06 A3004 RMK A01 T01830061  RH  045%=      5-min Rain = 0
KCO2 250240Z 07010KT 18/06 A3004 RMK A01 T01830061  RH  045%=      5-min Rain = 0
KCO2 250241Z 07009KT 18/06 A3004 RMK A01 T01820061  RH  045%=      5-min Rain = 0
KCO2 250242Z 07009KT 18/06 A3004 RMK A01 T01820061  RH  045%=      5-min Rain = 0
KCO2 250243Z 07010KT 18/06 A3004 RMK A01 T01820061  RH  045%=      5-min Rain = 0
KCO2 250244Z 07009KT 18/06 A3004 RMK A01 T01810062  RH  045%=      5-min Rain = 0
KCO2 250245Z 08010KT 18/06 A3004 RMK A01 T01810062  RH  046%=      5-min Rain = 0
KCO2 250246Z 08010KT 18/06 A3004 RMK A01 T01810062  RH  046%=      5-min Rain = 0
KCO2 250247Z 08009KT 18/06 A3004 RMK A01 T01800062  RH  046%=      5-min Rain = 0
KCO2 250248Z 08009KT 18/06 A3004 RMK A01 T01800062  RH  046%=      5-min Rain = 0
KCO2 250249Z 08009KT 18/06 A3004 RMK A01 T01800062  RH  046%=      5-min Rain = 0
KCO2 250250Z 09009KT 18/06 A3004 RMK A01 T01790062  RH  046%=      5-min Rain = 0
KCO2 250251Z 09008KT 18/06 A3004 RMK A01 T01780062  RH  046%=      5-min Rain = 0
KCO2 250252Z 08008KT 18/06 A3004 RMK A01 T01780062  RH  046%=      5-min Rain = 0
KCO2 250253Z 08008KT 18/06 A3004 RMK A01 T01770062  RH  047%=      5-min Rain = 0
KCO2 250254Z 08007KT 18/06 A3004 RMK A01 T01760062  RH  047%=      5-min Rain = 0
KCO2 250255Z 08007KT 18/06 A3004 RMK A01 T01750061  RH  047%=      5-min Rain = 0
KCO2 250256Z 08007KT 17/06 A3005 RMK A01 T01740061  RH  048%=      5-min Rain = 0
KCO2 250257Z 08007KT 17/06 A3005 RMK A01 T01720061  RH  048%=      5-min Rain = 0
KCO2 250258Z 08007KT 17/06 A3005 RMK A01 T01710061  RH  048%=      5-min Rain = 0
KCO2 250259Z 07007KT 17/06 A3005 RMK A01 T01700061  RH  049%=      5-min Rain = 0
KCO2 250300Z 07007KT 17/06 A3005 RMK A01 T01690061  RH  049%=      5-min Rain = 0
KCO2 250301Z 07007KT 17/06 A3005 RMK A01 T01680061  RH  049%=      5-min Rain = 0
KCO2 250302Z 07007KT 17/06 A3005 RMK A01 T01670061  RH  050%=      5-min Rain = 0
KCO2 250303Z 06007KT 17/06 A3005 RMK A01 T01670061  RH  050%=      5-min Rain = 0
KCO2 250304Z 06007KT 17/06 A3005 RMK A01 T01650060  RH  050%=      5-min Rain = 0
KCO2 250305Z 05007KT 16/06 A3005 RMK A01 T01640061  RH  050%=      5-min Rain = 0
KCO2 250306Z 05007KT 16/06 A3005 RMK A01 T01630060  RH  051%=      5-min Rain = 0
KCO2 250307Z 04007KT 16/06 A3006 RMK A01 T01620060  RH  051%=      5-min Rain = 0
KCO2 250308Z 04007KT 16/06 A3006 RMK A01 T01610060  RH  051%=      5-min Rain = 0
KCO2 250309Z 04008KT 16/06 A3006 RMK A01 T01600060  RH  052%=      5-min Rain = 0
KCO2 250310Z 03007KT 16/06 A3006 RMK A01 T01600061  RH  052%=      5-min Rain = 0
KCO2 250311Z 03007KT 16/06 A3006 RMK A01 T01600061  RH  052%=      5-min Rain = 0
KCO2 250312Z 04007KT 16/06 A3006 RMK A01 T01590061  RH  052%=      5-min Rain = 0
KCO2 250313Z 04006KT 16/06 A3006 RMK A01 T01600061  RH  052%=      5-min Rain = 0
KCO2 250314Z 05006KT 16/06 A3006 RMK A01 T01590061  RH  052%=      5-min Rain = 0
KCO2 250315Z 06007KT 16/06 A3006 RMK A01 T01590061  RH  052%=      5-min Rain = 0
KCO2 250316Z 06007KT 16/06 A3006 RMK A01 T01600061  RH  052%=      5-min Rain = 0
KCO2 250317Z 05007KT 16/06 A3006 RMK A01 T01600060  RH  052%=      5-min Rain = 0
KCO2 250318Z 05007KT 16/06 A3006 RMK A01 T01600060  RH  051%=      5-min Rain = 0
KCO2 250319Z 04007KT 16/06 A3006 RMK A01 T01590060  RH  052%=      5-min Rain = 0
KCO2 250320Z 04007KT 16/06 A3006 RMK A01 T01580060  RH  052%=      5-min Rain = 0
KCO2 250321Z 04007KT 16/06 A3006 RMK A01 T01570060  RH  052%=      5-min Rain = 0
KCO2 250322Z 04008KT 16/06 A3006 RMK A01 T01560059  RH  053%=      5-min Rain = 0
KCO2 250323Z 04007KT 16/06 A3006 RMK A01 T01550060  RH  053%=      5-min Rain = 0
KCO2 250324Z 05008KT 16/06 A3006 RMK A01 T01550060  RH  053%=      5-min Rain = 0
KCO2 250325Z 05008KT 16/06 A3006 RMK A01 T01550060  RH  053%=      5-min Rain = 0
KCO2 250326Z 06008KT 16/06 A3006 RMK A01 T01560060  RH  053%=      5-min Rain = 0
KCO2 250327Z 06008KT 16/06 A3006 RMK A01 T01570060  RH  053%=      5-min Rain = 0
KCO2 250328Z 06007KT 16/06 A3006 RMK A01 T01580061  RH  052%=      5-min Rain = 0
KCO2 250329Z 06008KT 16/06 A3006 RMK A01 T01590060  RH  052%=      5-min Rain = 0
KCO2 250330Z 06008KT 16/06 A3006 RMK A01 T01590060  RH  052%=      5-min Rain = 0
KCO2 250331Z 06008KT 16/06 A3006 RMK A01 T01590060  RH  052%=      5-min Rain = 0
KCO2 250332Z 06008KT 16/06 A3007 RMK A01 T01590060  RH  052%=      5-min Rain = 0
KCO2 250333Z 06008KT 16/06 A3007 RMK A01 T01590060  RH  052%=      5-min Rain = 0
KCO2 250334Z 06008KT 16/06 A3007 RMK A01 T01590061  RH  052%=      5-min Rain = 0
KCO2 250335Z 06008KT 16/06 A3007 RMK A01 T01590061  RH  052%=      5-min Rain = 0
KCO2 250336Z 06008KT 16/06 A3007 RMK A01 T01590061  RH  052%=      5-min Rain = 0
KCO2 250337Z 06009KT 16/06 A3007 RMK A01 T01590061  RH  052%=      5-min Rain = 0
KCO2 250338Z 06009KT 16/06 A3007 RMK A01 T01590061  RH  052%=      5-min Rain = 0
KCO2 250339Z 06009KT 16/06 A3007 RMK A01 T01590061  RH  052%=      5-min Rain = 0
KCO2 250340Z 06009KT 16/06 A3007 RMK A01 T01600062  RH  052%=      5-min Rain = 0
KCO2 250341Z 06009KT 16/06 A3007 RMK A01 T01600062  RH  052%=      5-min Rain = 0
KCO2 250342Z 06009KT 16/06 A3007 RMK A01 T01600062  RH  052%=      5-min Rain = 0
KCO2 250343Z 06009KT 16/06 A3007 RMK A01 T01600062  RH  052%=      5-min Rain = 0
KCO2 250344Z 06009KT 16/06 A3007 RMK A01 T01600063  RH  052%=      5-min Rain = 0
KCO2 250345Z 06008KT 16/06 A3007 RMK A01 T01610063  RH  052%=      5-min Rain = 0
KCO2 250346Z 06008KT 16/06 A3007 RMK A01 T01610063  RH  052%=      5-min Rain = 0
KCO2 250347Z 06008KT 16/06 A3007 RMK A01 T01610063  RH  052%=      5-min Rain = 0
KCO2 250348Z 06009KT 16/06 A3007 RMK A01 T01610063  RH  052%=      5-min Rain = 0
KCO2 250349Z 06008KT 16/06 A3008 RMK A01 T01600063  RH  053%=      5-min Rain = 0
KCO2 250350Z 06009KT 16/06 A3008 RMK A01 T01590064  RH  053%=      5-min Rain = 0
KCO2 250351Z 07009KT 16/06 A3008 RMK A01 T01590064  RH  053%=      5-min Rain = 0
KCO2 250352Z 07009KT 16/06 A3008 RMK A01 T01600064  RH  053%=      5-min Rain = 0
KCO2 250353Z 07008KT 16/06 A3008 RMK A01 T01600064  RH  053%=      5-min Rain = 0
KCO2 250354Z 07009KT 16/06 A3008 RMK A01 T01600064  RH  053%=      5-min Rain = 0
KCO2 250355Z 06009KT 16/06 A3008 RMK A01 T01600064  RH  053%=      5-min Rain = 0
KCO2 250356Z 06009KT 16/06 A3008 RMK A01 T01600064  RH  053%=      5-min Rain = 0
KCO2 250357Z 06009KT 16/06 A3008 RMK A01 T01600064  RH  053%=      5-min Rain = 0
KCO2 250358Z 06009KT 16/06 A3008 RMK A01 T01600064  RH  053%=      5-min Rain = 0
KCO2 250359Z 06008KT 16/07 A3008 RMK A01 T01600065  RH  053%=      5-min Rain = 0
KCO2 250400Z 05009KT 16/06 A3008 RMK A01 T01590064  RH  053%=      5-min Rain = 0
KCO2 250401Z 06008KT 16/07 A3008 RMK A01 T01590065  RH  054%=      5-min Rain = 0
KCO2 250402Z 06009KT 16/06 A3008 RMK A01 T01580064  RH  054%=      5-min Rain = 0
KCO2 250403Z 06009KT 16/07 A3008 RMK A01 T01580065  RH  054%=      5-min Rain = 0
KCO2 250404Z 06008KT 16/06 A3008 RMK A01 T01570064  RH  054%=      5-min Rain = 0
KCO2 250405Z 06008KT 16/07 A3008 RMK A01 T01570065  RH  054%=      5-min Rain = 0
KCO2 250406Z 06009KT 16/07 A3008 RMK A01 T01570065  RH  054%=      5-min Rain = 0
KCO2 250407Z 06009KT 16/07 A3008 RMK A01 T01580065  RH  054%=      5-min Rain = 0
KCO2 250408Z 06008KT 16/07 A3008 RMK A01 T01570065  RH  054%=      5-min Rain = 0
KCO2 250409Z 06008KT 16/06 A3008 RMK A01 T01570064  RH  054%=      5-min Rain = 0
KCO2 250410Z 05008KT 16/07 A3008 RMK A01 T01580065  RH  054%=      5-min Rain = 0
KCO2 250411Z 05008KT 16/07 A3008 RMK A01 T01570065  RH  054%=      5-min Rain = 0
KCO2 250412Z 05008KT 16/07 A3008 RMK A01 T01570065  RH  054%=      5-min Rain = 0
KCO2 250413Z 05008KT 16/07 A3008 RMK A01 T01560065  RH  054%=      5-min Rain = 0
KCO2 250414Z 06008KT 16/07 A3008 RMK A01 T01560065  RH  055%=      5-min Rain = 0
KCO2 250415Z 06008KT 16/07 A3008 RMK A01 T01560065  RH  055%=      5-min Rain = 0
KCO2 250416Z 06008KT 16/07 A3008 RMK A01 T01550065  RH  055%=      5-min Rain = 0
KCO2 250417Z 07008KT 16/07 A3008 RMK A01 T01560065  RH  055%=      5-min Rain = 0
KCO2 250418Z 07008KT 16/07 A3008 RMK A01 T01570065  RH  055%=      5-min Rain = 0
KCO2 250419Z 06008KT 16/07 A3008 RMK A01 T01560065  RH  055%=      5-min Rain = 0
KCO2 250420Z 06008KT 16/07 A3008 RMK A01 T01570066  RH  055%=      5-min Rain = 0
KCO2 250421Z 06008KT 16/07 A3008 RMK A01 T01570066  RH  055%=      5-min Rain = 0
KCO2 250422Z 06009KT 16/07 A3008 RMK A01 T01570066  RH  055%=      5-min Rain = 0
KCO2 250423Z 06008KT 16/07 A3008 RMK A01 T01560066  RH  055%=      5-min Rain = 0
KCO2 250424Z 05008KT 16/07 A3008 RMK A01 T01560066  RH  055%=      5-min Rain = 0
KCO2 250425Z 06008KT 16/07 A3008 RMK A01 T01560066  RH  055%=      5-min Rain = 0
KCO2 250426Z 06009KT 16/07 A3008 RMK A01 T01560066  RH  055%=      5-min Rain = 0
KCO2 250427Z 07009KT 16/07 A3008 RMK A01 T01560066  RH  055%=      5-min Rain = 0
KCO2 250428Z 07009KT 16/07 A3008 RMK A01 T01560066  RH  055%=      5-min Rain = 0
KCO2 250429Z 08008KT 16/07 A3008 RMK A01 T01560066  RH  055%=      5-min Rain = 0
KCO2 250430Z 07008KT 16/07 A3008 RMK A01 T01560066  RH  055%=      5-min Rain = 0
KCO2 250431Z 07009KT 16/07 A3008 RMK A01 T01560066  RH  055%=      5-min Rain = 0
KCO2 250432Z 06009KT 16/07 A3008 RMK A01 T01560066  RH  055%=      5-min Rain = 0
KCO2 250433Z 06008KT 16/07 A3008 RMK A01 T01560066  RH  055%=      5-min Rain = 0
KCO2 250434Z 06008KT 16/07 A3008 RMK A01 T01550066  RH  055%=      5-min Rain = 0
KCO2 250435Z 06008KT 16/07 A3008 RMK A01 T01550066  RH  056%=      5-min Rain = 0
KCO2 250436Z 06008KT 15/07 A3008 RMK A01 T01530066  RH  056%=      5-min Rain = 0
KCO2 250437Z 06007KT 15/07 A3008 RMK A01 T01530066  RH  056%=      5-min Rain = 0
KCO2 250438Z 07007KT 15/07 A3008 RMK A01 T01520066  RH  056%=      5-min Rain = 0
KCO2 250439Z 07007KT 15/07 A3008 RMK A01 T01520066  RH  057%=      5-min Rain = 0
KCO2 250440Z 07007KT 15/07 A3008 RMK A01 T01510066  RH  057%=      5-min Rain = 0
KCO2 250441Z 07008KT 15/07 A3008 RMK A01 T01510066  RH  057%=      5-min Rain = 0
KCO2 250442Z 06007KT 15/07 A3008 RMK A01 T01500066  RH  057%=      5-min Rain = 0
KCO2 250443Z 06007KT 15/07 A3008 RMK A01 T01500066  RH  057%=      5-min Rain = 0
KCO2 250444Z 06007KT 15/07 A3008 RMK A01 T01490066  RH  057%=      5-min Rain = 0
KCO2 250445Z 06007KT 15/07 A3008 RMK A01 T01480066  RH  058%=      5-min Rain = 0
KCO2 250446Z 06007KT 15/07 A3008 RMK A01 T01480066  RH  058%=      5-min Rain = 0
KCO2 250447Z 06006KT 15/07 A3008 RMK A01 T01480066  RH  058%=      5-min Rain = 0
KCO2 250448Z 07006KT 15/07 A3008 RMK A01 T01470066  RH  058%=      5-min Rain = 0
KCO2 250449Z 07007KT 15/07 A3008 RMK A01 T01470066  RH  058%=      5-min Rain = 0
KCO2 250450Z 07007KT 15/07 A3008 RMK A01 T01460066  RH  059%=      5-min Rain = 0
KCO2 250451Z 07007KT 15/07 A3008 RMK A01 T01450065  RH  059%=      5-min Rain = 0
KCO2 250452Z 07008KT 14/07 A3008 RMK A01 T01440065  RH  059%=      5-min Rain = 0
KCO2 250453Z 07008KT 14/07 A3008 RMK A01 T01430065  RH  060%=      5-min Rain = 0
KCO2 250454Z 06008KT 14/07 A3008 RMK A01 T01420065  RH  060%=      5-min Rain = 0
KCO2 250455Z 06008KT 14/07 A3008 RMK A01 T01420065  RH  060%=      5-min Rain = 0
KCO2 250456Z 06008KT 14/07 A3008 RMK A01 T01410065  RH  060%=      5-min Rain = 0
KCO2 250457Z 06007KT 14/07 A3008 RMK A01 T01410065  RH  060%=      5-min Rain = 0
KCO2 250458Z 07007KT 14/07 A3008 RMK A01 T01410065  RH  060%=      5-min Rain = 0
KCO2 250459Z 07007KT 14/07 A3008 RMK A01 T01410066  RH  060%=      5-min Rain = 0

Page generated in 0.0732 seconds.